TSC785 LEMD-CYHZ
Flight info
| Callsign | TSC785 |
|---|---|
| Flight time | 6h 45m |
| Altitude | 36000 |
| Route | ZMR N733 STG DCT NEXEP DCT MUDOS/M082F360 DCT 4420N DCT 4430N DCT 4440N DCT 4450N DCT DOPHN/N0462F360 DCT AGMIR LIRLA5 |
| Aircraft | A333/H-SDE3GHIJ2J3J5M1RVWXY/LB2D1 |
Departure
| Time | 2026-05-05 13:11 |
|---|---|
| Airport | Adolfo Suárez Madrid–Barajas Airport (LEMD) |
Arrival
| Time | 2026-05-05 19:56 |
|---|---|
| Airport | Halifax / Stanfield International Airport (CYHZ) |
| Time | Latitude | Longitude | Altitude | Speed | Heading |
|---|---|---|---|---|---|
| 2026-05-05 12:39 | 40.46424 | -3.56822 | 1981 ft | 0 kts | 288° |
| 2026-05-05 13:00 | 40.46417 | -3.56794 | 1978 ft | 4 kts | 285° |
| 2026-05-05 13:00 | 40.46411 | -3.56763 | 1975 ft | 3 kts | 287° |
| 2026-05-05 13:01 | 40.46369 | -3.56740 | 1975 ft | 0 kts | 15° |
| 2026-05-05 13:03 | 40.46380 | -3.56736 | 1975 ft | 4 kts | 15° |
| 2026-05-05 13:03 | 40.46422 | -3.56723 | 1975 ft | 8 kts | 10° |
| 2026-05-05 13:03 | 40.46491 | -3.56717 | 1980 ft | 12 kts | 2° |
| 2026-05-05 13:03 | 40.46585 | -3.56711 | 1981 ft | 15 kts | 4° |
| 2026-05-05 13:04 | 40.46700 | -3.56702 | 1981 ft | 18 kts | 3° |
| 2026-05-05 13:04 | 40.46802 | -3.56627 | 1982 ft | 19 kts | 81° |
| 2026-05-05 13:04 | 40.46832 | -3.56466 | 1979 ft | 19 kts | 28° |
| 2026-05-05 13:04 | 40.46970 | -3.56452 | 1980 ft | 21 kts | 359° |
| 2026-05-05 13:05 | 40.47114 | -3.56494 | 1984 ft | 22 kts | 336° |
| 2026-05-05 13:05 | 40.47243 | -3.56605 | 1991 ft | 22 kts | 324° |
| 2026-05-05 13:05 | 40.47363 | -3.56728 | 1993 ft | 22 kts | 323° |
| 2026-05-05 13:05 | 40.47486 | -3.56851 | 1996 ft | 22 kts | 323° |
| 2026-05-05 13:06 | 40.47610 | -3.56980 | 1998 ft | 23 kts | 322° |
| 2026-05-05 13:06 | 40.47737 | -3.57109 | 2000 ft | 23 kts | 320° |
| 2026-05-05 13:06 | 40.47864 | -3.57239 | 2004 ft | 23 kts | 323° |
| 2026-05-05 13:06 | 40.47994 | -3.57369 | 2006 ft | 25 kts | 323° |
| 2026-05-05 13:07 | 40.48140 | -3.57517 | 2004 ft | 28 kts | 322° |
| 2026-05-05 13:07 | 40.48286 | -3.57667 | 1999 ft | 22 kts | 322° |
| 2026-05-05 13:07 | 40.48423 | -3.57794 | 1996 ft | 26 kts | 331° |
| 2026-05-05 13:07 | 40.48581 | -3.57902 | 2000 ft | 24 kts | 336° |
| 2026-05-05 13:08 | 40.48754 | -3.57927 | 2001 ft | 26 kts | 359° |
| 2026-05-05 13:08 | 40.48880 | -3.57927 | 1999 ft | 27 kts | 0° |
| 2026-05-05 13:08 | 40.49078 | -3.57929 | 2002 ft | 29 kts | 359° |
| 2026-05-05 13:08 | 40.49176 | -3.57832 | 1998 ft | 21 kts | 92° |
| 2026-05-05 13:09 | 40.49180 | -3.57628 | 1993 ft | 14 kts | 81° |
| 2026-05-05 13:09 | 40.49221 | -3.57499 | 1991 ft | 11 kts | 65° |
| 2026-05-05 13:09 | 40.49298 | -3.57453 | 1987 ft | 13 kts | 1° |
| 2026-05-05 13:09 | 40.49388 | -3.57453 | 1990 ft | 16 kts | 360° |
| 2026-05-05 13:10 | 40.49656 | -3.57456 | 1990 ft | 66 kts | 359° |
| 2026-05-05 13:10 | 40.50292 | -3.57459 | 1994 ft | 116 kts | 0° |
| 2026-05-05 13:10 | 40.51261 | -3.57465 | 1999 ft | 162 kts | 360° |
| 2026-05-05 13:10 | 40.52464 | -3.57461 | 2434 ft | 170 kts | 360° |
| 2026-05-05 13:11 | 40.53600 | -3.57406 | 3248 ft | 160 kts | 1° |
| 2026-05-05 13:11 | 40.54754 | -3.57341 | 3563 ft | 173 kts | 357° |
| 2026-05-05 13:11 | 40.56019 | -3.57386 | 3794 ft | 191 kts | 356° |
| 2026-05-05 13:11 | 40.57417 | -3.57441 | 4044 ft | 210 kts | 356° |
| 2026-05-05 13:12 | 40.58940 | -3.57467 | 4301 ft | 230 kts | 358° |
| 2026-05-05 13:12 | 40.60594 | -3.57114 | 4562 ft | 252 kts | 17° |
| 2026-05-05 13:12 | 40.62255 | -3.56233 | 5041 ft | 260 kts | 18° |
| 2026-05-05 13:12 | 40.64030 | -3.55770 | 5629 ft | 261 kts | 1° |
| 2026-05-05 13:13 | 40.65849 | -3.55694 | 6252 ft | 262 kts | 358° |
| 2026-05-05 13:13 | 40.67683 | -3.55698 | 6865 ft | 265 kts | 358° |
| 2026-05-05 13:13 | 40.69534 | -3.55712 | 7472 ft | 267 kts | 358° |
| 2026-05-05 13:13 | 40.71401 | -3.55728 | 8078 ft | 270 kts | 356° |
| 2026-05-05 13:14 | 40.73238 | -3.56176 | 8639 ft | 270 kts | 333° |
| 2026-05-05 13:14 | 40.74667 | -3.57735 | 9093 ft | 272 kts | 304° |
| 2026-05-05 13:14 | 40.75667 | -3.59882 | 9605 ft | 277 kts | 298° |
| 2026-05-05 13:14 | 40.76583 | -3.62128 | 10189 ft | 281 kts | 297° |
| 2026-05-05 13:15 | 40.77528 | -3.64459 | 10472 ft | 296 kts | 297° |
| 2026-05-05 13:15 | 40.78533 | -3.66904 | 10720 ft | 311 kts | 297° |
| 2026-05-05 13:15 | 40.79599 | -3.69465 | 10967 ft | 326 kts | 297° |
| 2026-05-05 13:15 | 40.80719 | -3.72146 | 11201 ft | 340 kts | 297° |
| 2026-05-05 13:16 | 40.81878 | -3.74924 | 11594 ft | 349 kts | 297° |
| 2026-05-05 13:16 | 40.83056 | -3.77744 | 12104 ft | 352 kts | 297° |
| 2026-05-05 13:16 | 40.84247 | -3.80588 | 12692 ft | 355 kts | 297° |
| 2026-05-05 13:16 | 40.85440 | -3.83448 | 13251 ft | 357 kts | 297° |
| 2026-05-05 13:17 | 40.86641 | -3.86325 | 13837 ft | 358 kts | 297° |
| 2026-05-05 13:17 | 40.87846 | -3.89216 | 14405 ft | 360 kts | 296° |
| 2026-05-05 13:17 | 40.89057 | -3.92119 | 14924 ft | 362 kts | 296° |
| 2026-05-05 13:17 | 40.90273 | -3.95045 | 15418 ft | 364 kts | 296° |
| 2026-05-05 13:18 | 40.91494 | -3.97985 | 15957 ft | 366 kts | 296° |
| 2026-05-05 13:18 | 40.92722 | -4.00943 | 16524 ft | 367 kts | 296° |
| 2026-05-05 13:18 | 40.93950 | -4.03907 | 17075 ft | 368 kts | 296° |
| 2026-05-05 13:18 | 40.95186 | -4.06886 | 17574 ft | 370 kts | 296° |
| 2026-05-05 13:19 | 40.96426 | -4.09882 | 18040 ft | 372 kts | 296° |
| 2026-05-05 13:19 | 40.97672 | -4.12894 | 18517 ft | 374 kts | 295° |
| 2026-05-05 13:19 | 40.98923 | -4.15921 | 18968 ft | 376 kts | 295° |
| 2026-05-05 13:19 | 41.00179 | -4.18966 | 19379 ft | 378 kts | 295° |
| 2026-05-05 13:20 | 41.01434 | -4.22035 | 19800 ft | 380 kts | 294° |
| 2026-05-05 13:20 | 41.02626 | -4.25156 | 20245 ft | 380 kts | 293° |
| 2026-05-05 13:20 | 41.03799 | -4.28306 | 20619 ft | 382 kts | 293° |
| 2026-05-05 13:20 | 41.04972 | -4.31472 | 20999 ft | 384 kts | 293° |
| 2026-05-05 13:21 | 41.06153 | -4.34661 | 21373 ft | 386 kts | 293° |
| 2026-05-05 13:21 | 41.07340 | -4.37866 | 21739 ft | 388 kts | 293° |
| 2026-05-05 13:21 | 41.08530 | -4.41079 | 22108 ft | 390 kts | 293° |
| 2026-05-05 13:21 | 41.09725 | -4.44312 | 22467 ft | 391 kts | 292° |
| 2026-05-05 13:22 | 41.10923 | -4.47554 | 22830 ft | 393 kts | 293° |
| 2026-05-05 13:22 | 41.12126 | -4.50817 | 23156 ft | 395 kts | 293° |
| 2026-05-05 13:22 | 41.13335 | -4.54094 | 23506 ft | 396 kts | 292° |
| 2026-05-05 13:22 | 41.14548 | -4.57386 | 23842 ft | 398 kts | 292° |
| 2026-05-05 13:23 | 41.15765 | -4.60692 | 24194 ft | 399 kts | 292° |
| 2026-05-05 13:23 | 41.16983 | -4.64007 | 24533 ft | 401 kts | 292° |
| 2026-05-05 13:23 | 41.18207 | -4.67341 | 24843 ft | 402 kts | 292° |
| 2026-05-05 13:23 | 41.19417 | -4.70643 | 25136 ft | 404 kts | 292° |
| 2026-05-05 13:24 | 41.20648 | -4.74005 | 25446 ft | 406 kts | 292° |
| 2026-05-05 13:24 | 41.21884 | -4.77383 | 25734 ft | 408 kts | 292° |
| 2026-05-05 13:24 | 41.23140 | -4.80821 | 26025 ft | 409 kts | 292° |
| 2026-05-05 13:24 | 41.24367 | -4.84184 | 26290 ft | 411 kts | 292° |
| 2026-05-05 13:25 | 41.25614 | -4.87604 | 26624 ft | 412 kts | 292° |
| 2026-05-05 13:25 | 41.26864 | -4.91040 | 26895 ft | 414 kts | 292° |
| 2026-05-05 13:25 | 41.28119 | -4.94492 | 27159 ft | 416 kts | 292° |
| 2026-05-05 13:25 | 41.29378 | -4.97959 | 27433 ft | 417 kts | 292° |
| 2026-05-05 13:26 | 41.30642 | -5.01441 | 27708 ft | 419 kts | 292° |
| 2026-05-05 13:26 | 41.31908 | -5.04934 | 27956 ft | 421 kts | 292° |
| 2026-05-05 13:26 | 41.33178 | -5.08446 | 28208 ft | 422 kts | 292° |
| 2026-05-05 13:26 | 41.34451 | -5.11971 | 28477 ft | 423 kts | 292° |
| 2026-05-05 13:27 | 41.35729 | -5.15513 | 28738 ft | 425 kts | 292° |
| 2026-05-05 13:27 | 41.37010 | -5.19066 | 28974 ft | 427 kts | 292° |
| 2026-05-05 13:27 | 41.38297 | -5.22640 | 29186 ft | 429 kts | 292° |
| 2026-05-05 13:27 | 41.39588 | -5.26225 | 29437 ft | 431 kts | 293° |
| 2026-05-05 13:28 | 41.40885 | -5.29833 | 29666 ft | 432 kts | 293° |
| 2026-05-05 13:28 | 41.42183 | -5.33455 | 29871 ft | 435 kts | 293° |
| 2026-05-05 13:28 | 41.43484 | -5.37083 | 30217 ft | 433 kts | 293° |
| 2026-05-05 13:28 | 41.44778 | -5.40700 | 30556 ft | 432 kts | 293° |
| 2026-05-05 13:29 | 41.46071 | -5.44318 | 30825 ft | 432 kts | 293° |
| 2026-05-05 13:29 | 41.47362 | -5.47937 | 31045 ft | 433 kts | 293° |
| 2026-05-05 13:29 | 41.48656 | -5.51573 | 31272 ft | 434 kts | 293° |
| 2026-05-05 13:29 | 41.49954 | -5.55211 | 31528 ft | 434 kts | 293° |
| 2026-05-05 13:30 | 41.51249 | -5.58850 | 31797 ft | 434 kts | 293° |
| 2026-05-05 13:30 | 41.52573 | -5.62474 | 32040 ft | 435 kts | 296° |
| 2026-05-05 13:30 | 41.54112 | -5.65960 | 32287 ft | 436 kts | 300° |
| 2026-05-05 13:30 | 41.55786 | -5.69340 | 32546 ft | 437 kts | 302° |
| 2026-05-05 13:31 | 41.57525 | -5.72668 | 32766 ft | 437 kts | 303° |
| 2026-05-05 13:31 | 41.59291 | -5.75980 | 32977 ft | 438 kts | 303° |
| 2026-05-05 13:31 | 41.61064 | -5.79291 | 33189 ft | 438 kts | 303° |
| 2026-05-05 13:31 | 41.62828 | -5.82607 | 33420 ft | 437 kts | 303° |
| 2026-05-05 13:32 | 41.64582 | -5.85929 | 33596 ft | 438 kts | 303° |
| 2026-05-05 13:32 | 41.66330 | -5.89263 | 33812 ft | 437 kts | 303° |
| 2026-05-05 13:32 | 41.68071 | -5.92605 | 34014 ft | 437 kts | 303° |
| 2026-05-05 13:32 | 41.69805 | -5.95942 | 34236 ft | 437 kts | 303° |
| 2026-05-05 13:33 | 41.71539 | -5.99285 | 34404 ft | 438 kts | 303° |
| 2026-05-05 13:33 | 41.73276 | -6.02639 | 34560 ft | 439 kts | 303° |
| 2026-05-05 13:33 | 41.75012 | -6.05998 | 34769 ft | 438 kts | 303° |
| 2026-05-05 13:33 | 41.76747 | -6.09356 | 35007 ft | 438 kts | 303° |
| 2026-05-05 13:34 | 41.78479 | -6.12708 | 35117 ft | 438 kts | 303° |
| 2026-05-05 13:34 | 41.80218 | -6.16073 | 35228 ft | 439 kts | 303° |
| 2026-05-05 13:34 | 41.81958 | -6.19444 | 35377 ft | 440 kts | 303° |
| 2026-05-05 13:34 | 41.83699 | -6.22817 | 35541 ft | 439 kts | 303° |
| 2026-05-05 13:35 | 41.85437 | -6.26193 | 35670 ft | 440 kts | 303° |
| 2026-05-05 13:35 | 41.87175 | -6.29577 | 35828 ft | 440 kts | 303° |
| 2026-05-05 13:35 | 41.88911 | -6.32961 | 35975 ft | 441 kts | 303° |
| 2026-05-05 13:35 | 41.90652 | -6.36361 | 36024 ft | 443 kts | 302° |
| 2026-05-05 13:36 | 41.94136 | -6.43165 | 36026 ft | 441 kts | 302° |
| 2026-05-05 13:36 | 41.97605 | -6.49959 | 36027 ft | 440 kts | 302° |
| 2026-05-05 13:37 | 42.01062 | -6.56748 | 36026 ft | 440 kts | 302° |
| 2026-05-05 13:37 | 42.04524 | -6.63559 | 36035 ft | 442 kts | 303° |
| 2026-05-05 13:38 | 42.07996 | -6.70400 | 36020 ft | 442 kts | 303° |
| 2026-05-05 13:38 | 42.11434 | -6.77205 | 36028 ft | 441 kts | 303° |
| 2026-05-05 13:39 | 42.14871 | -6.84007 | 36034 ft | 443 kts | 303° |
| 2026-05-05 13:39 | 42.18336 | -6.90881 | 36034 ft | 443 kts | 303° |
| 2026-05-05 13:40 | 42.21788 | -6.97750 | 36036 ft | 442 kts | 303° |
| 2026-05-05 13:40 | 42.25235 | -7.04628 | 36050 ft | 442 kts | 303° |
| 2026-05-05 13:41 | 42.28674 | -7.11502 | 36051 ft | 442 kts | 303° |
| 2026-05-05 13:41 | 42.32107 | -7.18382 | 36034 ft | 441 kts | 303° |
| 2026-05-05 13:42 | 42.35538 | -7.25261 | 36051 ft | 442 kts | 303° |
| 2026-05-05 13:42 | 42.38968 | -7.32151 | 36056 ft | 441 kts | 303° |
| 2026-05-05 13:43 | 42.42392 | -7.39048 | 36059 ft | 441 kts | 303° |
| 2026-05-05 13:43 | 42.45803 | -7.45948 | 36049 ft | 440 kts | 303° |
| 2026-05-05 13:44 | 42.49198 | -7.52835 | 36070 ft | 439 kts | 303° |
| 2026-05-05 13:44 | 42.52587 | -7.59732 | 36075 ft | 440 kts | 303° |
| 2026-05-05 13:45 | 42.55979 | -7.66642 | 36078 ft | 440 kts | 303° |
| 2026-05-05 13:45 | 42.59363 | -7.73557 | 36071 ft | 440 kts | 303° |
| 2026-05-05 13:46 | 42.62743 | -7.80473 | 36064 ft | 439 kts | 303° |
| 2026-05-05 13:46 | 42.66122 | -7.87394 | 36068 ft | 440 kts | 303° |
| 2026-05-05 13:47 | 42.69506 | -7.94339 | 36077 ft | 441 kts | 303° |
| 2026-05-05 13:47 | 42.72885 | -8.01290 | 36069 ft | 441 kts | 303° |
| 2026-05-05 13:48 | 42.76249 | -8.08233 | 36076 ft | 438 kts | 303° |
| 2026-05-05 13:48 | 42.79593 | -8.15153 | 36075 ft | 437 kts | 303° |
| 2026-05-05 13:49 | 42.82937 | -8.22082 | 36069 ft | 438 kts | 303° |
| 2026-05-05 13:49 | 42.86281 | -8.29030 | 36073 ft | 439 kts | 303° |
| 2026-05-05 13:50 | 42.89622 | -8.35991 | 36074 ft | 439 kts | 303° |
| 2026-05-05 13:50 | 42.92275 | -8.41880 | 36071 ft | 439 kts | 297° |
| 2026-05-05 13:51 | 42.94596 | -8.49586 | 36074 ft | 440 kts | 292° |
| 2026-05-05 13:51 | 42.96977 | -8.58732 | 36073 ft | 439 kts | 291° |
| 2026-05-05 13:52 | 42.98650 | -8.65340 | 36077 ft | 440 kts | 291° |
| 2026-05-05 13:52 | 43.00650 | -8.73226 | 36075 ft | 439 kts | 291° |
| 2026-05-05 13:53 | 43.02654 | -8.81106 | 36078 ft | 439 kts | 291° |
| 2026-05-05 13:53 | 43.04657 | -8.88975 | 36070 ft | 438 kts | 291° |
| 2026-05-05 13:54 | 43.06654 | -8.96845 | 36072 ft | 438 kts | 291° |
| 2026-05-05 13:54 | 43.08631 | -9.04660 | 36079 ft | 437 kts | 291° |
| 2026-05-05 13:55 | 43.10610 | -9.12528 | 36070 ft | 437 kts | 291° |
| 2026-05-05 13:55 | 43.12585 | -9.20392 | 36073 ft | 437 kts | 291° |
| 2026-05-05 13:56 | 43.14556 | -9.28269 | 36073 ft | 437 kts | 291° |
| 2026-05-05 13:56 | 43.16520 | -9.36154 | 36071 ft | 437 kts | 291° |
| 2026-05-05 13:57 | 43.18479 | -9.44043 | 36072 ft | 437 kts | 291° |
| 2026-05-05 13:57 | 43.20078 | -9.52070 | 36075 ft | 438 kts | 283° |
| 2026-05-05 13:58 | 43.21035 | -9.60343 | 36072 ft | 440 kts | 281° |
| 2026-05-05 13:58 | 43.21867 | -9.68650 | 36073 ft | 440 kts | 281° |
| 2026-05-05 13:59 | 43.23079 | -9.81133 | 36073 ft | 440 kts | 281° |
| 2026-05-05 14:00 | 43.24299 | -9.93614 | 36074 ft | 441 kts | 281° |
| 2026-05-05 14:00 | 43.25113 | -10.01942 | 36076 ft | 440 kts | 281° |
| 2026-05-05 14:01 | 43.25917 | -10.10254 | 36072 ft | 438 kts | 281° |
| 2026-05-05 14:01 | 43.26712 | -10.18534 | 36077 ft | 438 kts | 281° |
| 2026-05-05 14:02 | 43.27504 | -10.26836 | 36076 ft | 439 kts | 281° |
| 2026-05-05 14:02 | 43.28288 | -10.35143 | 36071 ft | 439 kts | 281° |
| 2026-05-05 14:03 | 43.29065 | -10.43455 | 36072 ft | 439 kts | 281° |
| 2026-05-05 14:03 | 43.29837 | -10.51742 | 36071 ft | 437 kts | 281° |
| 2026-05-05 14:04 | 43.30601 | -10.60028 | 36073 ft | 438 kts | 281° |
| 2026-05-05 14:04 | 43.31358 | -10.68312 | 36072 ft | 437 kts | 280° |
| 2026-05-05 14:05 | 43.32102 | -10.76530 | 36071 ft | 437 kts | 280° |
| 2026-05-05 14:05 | 43.32846 | -10.84804 | 36072 ft | 437 kts | 280° |
| 2026-05-05 14:06 | 43.33588 | -10.93086 | 36072 ft | 436 kts | 280° |
| 2026-05-05 14:06 | 43.34321 | -11.01358 | 36072 ft | 436 kts | 280° |
| 2026-05-05 14:07 | 43.35046 | -11.09625 | 36076 ft | 436 kts | 280° |
| 2026-05-05 14:07 | 43.35763 | -11.17894 | 36072 ft | 435 kts | 280° |
| 2026-05-05 14:08 | 43.36476 | -11.26160 | 36071 ft | 435 kts | 280° |
| 2026-05-05 14:08 | 43.37183 | -11.34431 | 36072 ft | 435 kts | 280° |
| 2026-05-05 14:09 | 43.37883 | -11.42695 | 36076 ft | 435 kts | 280° |
| 2026-05-05 14:09 | 43.38582 | -11.50970 | 36073 ft | 435 kts | 280° |
| 2026-05-05 14:10 | 43.39271 | -11.59235 | 36072 ft | 436 kts | 280° |
| 2026-05-05 14:10 | 43.39953 | -11.67523 | 36075 ft | 436 kts | 280° |
| 2026-05-05 14:11 | 43.40630 | -11.75813 | 36070 ft | 437 kts | 279° |
| 2026-05-05 14:11 | 43.41303 | -11.84108 | 36075 ft | 436 kts | 279° |
| 2026-05-05 14:12 | 43.41970 | -11.92400 | 36072 ft | 436 kts | 279° |
| 2026-05-05 14:12 | 43.42627 | -12.00646 | 36072 ft | 437 kts | 279° |
| 2026-05-05 14:13 | 43.43285 | -12.08958 | 36073 ft | 437 kts | 279° |
| 2026-05-05 14:13 | 43.43933 | -12.17263 | 36070 ft | 436 kts | 279° |
| 2026-05-05 14:14 | 43.44575 | -12.25568 | 36071 ft | 436 kts | 279° |
| 2026-05-05 14:14 | 43.45208 | -12.33865 | 36070 ft | 436 kts | 279° |
| 2026-05-05 14:15 | 43.45840 | -12.42180 | 36075 ft | 437 kts | 279° |
| 2026-05-05 14:15 | 43.46466 | -12.50497 | 36071 ft | 436 kts | 279° |
| 2026-05-05 14:16 | 43.47084 | -12.58807 | 36071 ft | 437 kts | 278° |
| 2026-05-05 14:16 | 43.47696 | -12.67136 | 36071 ft | 437 kts | 278° |
| 2026-05-05 14:17 | 43.48306 | -12.75450 | 36077 ft | 436 kts | 278° |
| 2026-05-05 14:17 | 43.48906 | -12.83762 | 36075 ft | 436 kts | 278° |
| 2026-05-05 14:18 | 43.49502 | -12.92084 | 36075 ft | 437 kts | 278° |
| 2026-05-05 14:18 | 43.50097 | -13.00349 | 36072 ft | 436 kts | 279° |
| 2026-05-05 14:19 | 43.50882 | -13.08630 | 36071 ft | 436 kts | 281° |
| 2026-05-05 14:19 | 43.51752 | -13.16901 | 36070 ft | 436 kts | 281° |
| 2026-05-05 14:20 | 43.52611 | -13.25174 | 36077 ft | 436 kts | 280° |
| 2026-05-05 14:20 | 43.53450 | -13.33461 | 36079 ft | 437 kts | 280° |
| 2026-05-05 14:21 | 43.54275 | -13.41761 | 36071 ft | 437 kts | 280° |
| 2026-05-05 14:21 | 43.55093 | -13.50069 | 36070 ft | 437 kts | 280° |
| 2026-05-05 14:22 | 43.55907 | -13.58383 | 36071 ft | 438 kts | 280° |
| 2026-05-05 14:22 | 43.56713 | -13.66695 | 36070 ft | 437 kts | 280° |
| 2026-05-05 14:23 | 43.57514 | -13.75012 | 36070 ft | 438 kts | 279° |
| 2026-05-05 14:23 | 43.58310 | -13.83343 | 36072 ft | 438 kts | 279° |
| 2026-05-05 14:24 | 43.59101 | -13.91688 | 36071 ft | 439 kts | 279° |
| 2026-05-05 14:24 | 43.59879 | -13.99975 | 36077 ft | 439 kts | 279° |
| 2026-05-05 14:25 | 43.60659 | -14.08325 | 36073 ft | 439 kts | 279° |
| 2026-05-05 14:25 | 43.61436 | -14.16689 | 36079 ft | 439 kts | 279° |
| 2026-05-05 14:26 | 43.62202 | -14.25053 | 36077 ft | 439 kts | 279° |
| 2026-05-05 14:26 | 43.62963 | -14.33415 | 36075 ft | 439 kts | 279° |
| 2026-05-05 14:27 | 43.63717 | -14.41785 | 36072 ft | 439 kts | 279° |
| 2026-05-05 14:27 | 43.64466 | -14.50145 | 36073 ft | 439 kts | 279° |
| 2026-05-05 14:28 | 43.65213 | -14.58526 | 36072 ft | 440 kts | 279° |
| 2026-05-05 14:28 | 43.65952 | -14.66915 | 36072 ft | 440 kts | 279° |
| 2026-05-05 14:29 | 43.66684 | -14.75301 | 36073 ft | 440 kts | 279° |
| 2026-05-05 14:29 | 43.67411 | -14.83709 | 36074 ft | 441 kts | 279° |
| 2026-05-05 14:30 | 43.68134 | -14.92121 | 36074 ft | 441 kts | 278° |
| 2026-05-05 14:30 | 43.68848 | -15.00535 | 36071 ft | 441 kts | 278° |
| 2026-05-05 14:31 | 43.69557 | -15.08956 | 36082 ft | 441 kts | 278° |
| 2026-05-05 14:31 | 43.70263 | -15.17378 | 36083 ft | 442 kts | 278° |
| 2026-05-05 14:32 | 43.70962 | -15.25826 | 36081 ft | 443 kts | 278° |
| 2026-05-05 14:32 | 43.71654 | -15.34277 | 36080 ft | 443 kts | 278° |
| 2026-05-05 14:33 | 43.72343 | -15.42747 | 36081 ft | 443 kts | 278° |
| 2026-05-05 14:33 | 43.73027 | -15.51227 | 36083 ft | 444 kts | 278° |
| 2026-05-05 14:34 | 43.73703 | -15.59712 | 36083 ft | 444 kts | 278° |
| 2026-05-05 14:34 | 43.74366 | -15.68149 | 36083 ft | 445 kts | 278° |
| 2026-05-05 14:35 | 43.75033 | -15.76654 | 36083 ft | 445 kts | 278° |
| 2026-05-05 14:35 | 43.75692 | -15.85167 | 36081 ft | 445 kts | 278° |
| 2026-05-05 14:36 | 43.76351 | -15.93730 | 36083 ft | 445 kts | 278° |
| 2026-05-05 14:36 | 43.76996 | -16.02194 | 36081 ft | 446 kts | 278° |
| 2026-05-05 14:37 | 43.77636 | -16.10720 | 36083 ft | 445 kts | 278° |
| 2026-05-05 14:37 | 43.78271 | -16.19235 | 36081 ft | 444 kts | 278° |
| 2026-05-05 14:38 | 43.78898 | -16.27745 | 36082 ft | 445 kts | 278° |
| 2026-05-05 14:38 | 43.79518 | -16.36262 | 36083 ft | 445 kts | 278° |
| 2026-05-05 14:39 | 43.80033 | -16.43399 | 36114 ft | 445 kts | 278° |
| 2026-05-05 14:39 | 43.80644 | -16.51923 | 36130 ft | 445 kts | 278° |
| 2026-05-05 14:40 | 43.81249 | -16.60443 | 36132 ft | 445 kts | 278° |
| 2026-05-05 14:40 | 43.81841 | -16.68911 | 36144 ft | 445 kts | 278° |
| 2026-05-05 14:41 | 43.82436 | -16.77502 | 36135 ft | 445 kts | 278° |
| 2026-05-05 14:41 | 43.83016 | -16.85977 | 36131 ft | 445 kts | 278° |
| 2026-05-05 14:42 | 43.83592 | -16.94513 | 36145 ft | 445 kts | 278° |
| 2026-05-05 14:42 | 43.84165 | -17.03043 | 36134 ft | 445 kts | 278° |
| 2026-05-05 14:43 | 43.84732 | -17.11570 | 36145 ft | 445 kts | 278° |
| 2026-05-05 14:43 | 43.85291 | -17.20103 | 36145 ft | 445 kts | 278° |
| 2026-05-05 14:44 | 43.85845 | -17.28650 | 36146 ft | 444 kts | 278° |
| 2026-05-05 14:44 | 43.86392 | -17.37183 | 36148 ft | 445 kts | 278° |
| 2026-05-05 14:45 | 43.86931 | -17.45717 | 36146 ft | 445 kts | 278° |
| 2026-05-05 14:45 | 43.87464 | -17.54259 | 36146 ft | 445 kts | 278° |
| 2026-05-05 14:46 | 43.87989 | -17.62792 | 36148 ft | 444 kts | 278° |
| 2026-05-05 14:46 | 43.88509 | -17.71327 | 36173 ft | 444 kts | 278° |
| 2026-05-05 14:47 | 43.89022 | -17.79870 | 36172 ft | 445 kts | 278° |
| 2026-05-05 14:47 | 43.89530 | -17.88414 | 36173 ft | 444 kts | 278° |
| 2026-05-05 14:48 | 43.90030 | -17.96889 | 36171 ft | 444 kts | 278° |
| 2026-05-05 14:48 | 43.90526 | -18.05434 | 36176 ft | 444 kts | 277° |
| 2026-05-05 14:49 | 43.91013 | -18.13976 | 36182 ft | 444 kts | 277° |
| 2026-05-05 14:49 | 43.91497 | -18.22534 | 36182 ft | 445 kts | 277° |
| 2026-05-05 14:50 | 43.91973 | -18.31085 | 36182 ft | 445 kts | 277° |
| 2026-05-05 14:50 | 43.92443 | -18.39632 | 36185 ft | 444 kts | 277° |
| 2026-05-05 14:51 | 43.92903 | -18.48157 | 36187 ft | 442 kts | 277° |
| 2026-05-05 14:51 | 43.93358 | -18.56666 | 36185 ft | 442 kts | 277° |
| 2026-05-05 14:52 | 43.93805 | -18.65179 | 36187 ft | 442 kts | 277° |
| 2026-05-05 14:52 | 43.94250 | -18.73700 | 36192 ft | 443 kts | 277° |
| 2026-05-05 14:53 | 43.94683 | -18.82158 | 36194 ft | 442 kts | 277° |
| 2026-05-05 14:53 | 43.95112 | -18.90688 | 36188 ft | 443 kts | 277° |
| 2026-05-05 14:54 | 43.95536 | -18.99212 | 36188 ft | 443 kts | 277° |
| 2026-05-05 14:54 | 43.95953 | -19.07738 | 36186 ft | 443 kts | 277° |
| 2026-05-05 14:55 | 43.96362 | -19.16259 | 36193 ft | 442 kts | 277° |
| 2026-05-05 14:55 | 43.96766 | -19.24779 | 36203 ft | 443 kts | 277° |
| 2026-05-05 14:56 | 43.97166 | -19.33323 | 36201 ft | 443 kts | 276° |
| 2026-05-05 14:56 | 43.97557 | -19.41863 | 36203 ft | 443 kts | 276° |
| 2026-05-05 14:57 | 43.97943 | -19.50383 | 36201 ft | 442 kts | 276° |
| 2026-05-05 14:57 | 43.98322 | -19.58896 | 36201 ft | 441 kts | 276° |
| 2026-05-05 14:58 | 43.98695 | -19.67405 | 36202 ft | 442 kts | 276° |
| 2026-05-05 14:58 | 43.99061 | -19.75920 | 36208 ft | 442 kts | 276° |
| 2026-05-05 14:59 | 43.99421 | -19.84437 | 36210 ft | 442 kts | 276° |
| 2026-05-05 14:59 | 43.99774 | -19.92959 | 36211 ft | 442 kts | 276° |
| 2026-05-05 15:00 | 44.00063 | -20.00034 | 36211 ft | 442 kts | 276° |
| 2026-05-05 15:00 | 44.00485 | -20.09993 | 36247 ft | 442 kts | 276° |
| 2026-05-05 15:01 | 44.00852 | -20.18517 | 36248 ft | 442 kts | 276° |
| 2026-05-05 15:01 | 44.01207 | -20.26976 | 36247 ft | 442 kts | 276° |
| 2026-05-05 15:02 | 44.01555 | -20.35492 | 36256 ft | 441 kts | 276° |
| 2026-05-05 15:02 | 44.01895 | -20.44004 | 36257 ft | 441 kts | 276° |
| 2026-05-05 15:03 | 44.02230 | -20.52519 | 36257 ft | 441 kts | 276° |
| 2026-05-05 15:03 | 44.02565 | -20.61038 | 36257 ft | 442 kts | 276° |
| 2026-05-05 15:04 | 44.02889 | -20.69557 | 36257 ft | 441 kts | 276° |
| 2026-05-05 15:04 | 44.03205 | -20.78068 | 36257 ft | 441 kts | 276° |
| 2026-05-05 15:05 | 44.03669 | -20.90821 | 36257 ft | 440 kts | 277° |
| 2026-05-05 15:06 | 44.03966 | -20.99309 | 36257 ft | 439 kts | 277° |
| 2026-05-05 15:06 | 44.04259 | -21.07788 | 36257 ft | 439 kts | 277° |
| 2026-05-05 15:07 | 44.04545 | -21.16271 | 36260 ft | 439 kts | 277° |
| 2026-05-05 15:07 | 44.04827 | -21.24738 | 36267 ft | 438 kts | 277° |
| 2026-05-05 15:08 | 44.05102 | -21.33191 | 36266 ft | 437 kts | 277° |
| 2026-05-05 15:08 | 44.05368 | -21.41634 | 36266 ft | 437 kts | 277° |
| 2026-05-05 15:09 | 44.05632 | -21.49992 | 36266 ft | 434 kts | 280° |
| 2026-05-05 15:09 | 44.05883 | -21.58344 | 36265 ft | 431 kts | 280° |
| 2026-05-05 15:10 | 44.06123 | -21.66714 | 36267 ft | 430 kts | 280° |
| 2026-05-05 15:10 | 44.06360 | -21.74974 | 36247 ft | 430 kts | 280° |
| 2026-05-05 15:11 | 44.06596 | -21.83290 | 36249 ft | 431 kts | 280° |
| 2026-05-05 15:11 | 44.06822 | -21.91612 | 36249 ft | 430 kts | 280° |
| 2026-05-05 15:12 | 44.07039 | -21.99932 | 36247 ft | 431 kts | 280° |
| 2026-05-05 15:12 | 44.07256 | -22.08253 | 36273 ft | 430 kts | 280° |
| 2026-05-05 15:13 | 44.07468 | -22.16573 | 36275 ft | 430 kts | 280° |
| 2026-05-05 15:13 | 44.07670 | -22.24896 | 36275 ft | 431 kts | 280° |
| 2026-05-05 15:14 | 44.07868 | -22.33214 | 36275 ft | 430 kts | 280° |
| 2026-05-05 15:14 | 44.08059 | -22.41529 | 36276 ft | 430 kts | 280° |
| 2026-05-05 15:15 | 44.08243 | -22.49845 | 36285 ft | 431 kts | 279° |
| 2026-05-05 15:15 | 44.08422 | -22.58164 | 36284 ft | 430 kts | 279° |
| 2026-05-05 15:16 | 44.08596 | -22.66469 | 36284 ft | 430 kts | 279° |
| 2026-05-05 15:16 | 44.08761 | -22.74762 | 36294 ft | 428 kts | 279° |
| 2026-05-05 15:17 | 44.08922 | -22.83050 | 36293 ft | 429 kts | 279° |
| 2026-05-05 15:17 | 44.09074 | -22.91346 | 36294 ft | 429 kts | 279° |
| 2026-05-05 15:18 | 44.09223 | -22.99636 | 36292 ft | 429 kts | 279° |
| 2026-05-05 15:18 | 44.09368 | -23.07858 | 36293 ft | 428 kts | 278° |
| 2026-05-05 15:19 | 44.09502 | -23.16136 | 36295 ft | 428 kts | 278° |
| 2026-05-05 15:19 | 44.09628 | -23.24406 | 36293 ft | 428 kts | 278° |
| 2026-05-05 15:20 | 44.09750 | -23.32677 | 36308 ft | 427 kts | 278° |
| 2026-05-05 15:20 | 44.09869 | -23.40933 | 36315 ft | 427 kts | 278° |
| 2026-05-05 15:21 | 44.09981 | -23.49195 | 36300 ft | 427 kts | 278° |
| 2026-05-05 15:21 | 44.10087 | -23.57448 | 36299 ft | 426 kts | 278° |
| 2026-05-05 15:22 | 44.10184 | -23.65707 | 36304 ft | 427 kts | 278° |
| 2026-05-05 15:22 | 44.10280 | -23.73981 | 36303 ft | 427 kts | 277° |
| 2026-05-05 15:23 | 44.10370 | -23.82253 | 36316 ft | 428 kts | 277° |
| 2026-05-05 15:23 | 44.10452 | -23.90524 | 36303 ft | 427 kts | 277° |
| 2026-05-05 15:24 | 44.10527 | -23.98796 | 36309 ft | 427 kts | 277° |
| 2026-05-05 15:24 | 44.10598 | -24.07069 | 36308 ft | 427 kts | 277° |
| 2026-05-05 15:25 | 44.10662 | -24.15289 | 36316 ft | 428 kts | 277° |
| 2026-05-05 15:25 | 44.10718 | -24.23619 | 36328 ft | 427 kts | 277° |
| 2026-05-05 15:26 | 44.10768 | -24.31824 | 36327 ft | 427 kts | 277° |
| 2026-05-05 15:26 | 44.10815 | -24.40088 | 36320 ft | 427 kts | 277° |
| 2026-05-05 15:27 | 44.10850 | -24.47017 | 36316 ft | 427 kts | 277° |
| 2026-05-05 15:27 | 44.10886 | -24.55258 | 36326 ft | 426 kts | 277° |
| 2026-05-05 15:28 | 44.10916 | -24.63437 | 36318 ft | 426 kts | 277° |
| 2026-05-05 15:28 | 44.10938 | -24.71663 | 36316 ft | 424 kts | 277° |
| 2026-05-05 15:29 | 44.10953 | -24.79859 | 36324 ft | 423 kts | 277° |
| 2026-05-05 15:29 | 44.10966 | -24.88033 | 36318 ft | 422 kts | 277° |
| 2026-05-05 15:30 | 44.10973 | -24.96202 | 36337 ft | 422 kts | 277° |
| 2026-05-05 15:30 | 44.10972 | -25.04354 | 36330 ft | 421 kts | 277° |
| 2026-05-05 15:31 | 44.10965 | -25.12493 | 36332 ft | 420 kts | 277° |
| 2026-05-05 15:31 | 44.10953 | -25.20605 | 36337 ft | 419 kts | 277° |
| 2026-05-05 15:32 | 44.10936 | -25.28702 | 36359 ft | 418 kts | 277° |
| 2026-05-05 15:32 | 44.10913 | -25.36788 | 36356 ft | 418 kts | 277° |
| 2026-05-05 15:33 | 44.10885 | -25.44871 | 36356 ft | 417 kts | 277° |
| 2026-05-05 15:33 | 44.10850 | -25.52934 | 36358 ft | 416 kts | 277° |
| 2026-05-05 15:34 | 44.10808 | -25.60978 | 36357 ft | 416 kts | 277° |
| 2026-05-05 15:34 | 44.10763 | -25.69020 | 36359 ft | 415 kts | 277° |
| 2026-05-05 15:35 | 44.10712 | -25.77053 | 36367 ft | 415 kts | 277° |
| 2026-05-05 15:35 | 44.10656 | -25.85019 | 36368 ft | 415 kts | 277° |
| 2026-05-05 15:36 | 44.10595 | -25.93035 | 36366 ft | 414 kts | 277° |
| 2026-05-05 15:36 | 44.10527 | -26.01055 | 36366 ft | 414 kts | 277° |
| 2026-05-05 15:37 | 44.10453 | -26.09073 | 36366 ft | 414 kts | 277° |
| 2026-05-05 15:37 | 44.10376 | -26.17089 | 36366 ft | 415 kts | 277° |
| 2026-05-05 15:38 | 44.10293 | -26.25112 | 36360 ft | 414 kts | 277° |
| 2026-05-05 15:38 | 44.10201 | -26.33123 | 36358 ft | 414 kts | 277° |
| 2026-05-05 15:39 | 44.10105 | -26.41133 | 36359 ft | 414 kts | 276° |
| 2026-05-05 15:39 | 44.10003 | -26.49120 | 36358 ft | 413 kts | 276° |
| 2026-05-05 15:40 | 44.09896 | -26.57111 | 36357 ft | 413 kts | 276° |
| 2026-05-05 15:40 | 44.09784 | -26.65101 | 36358 ft | 413 kts | 276° |
| 2026-05-05 15:41 | 44.09667 | -26.73093 | 36358 ft | 413 kts | 276° |
| 2026-05-05 15:41 | 44.09542 | -26.81072 | 36358 ft | 412 kts | 276° |
| 2026-05-05 15:42 | 44.09413 | -26.89032 | 36357 ft | 412 kts | 276° |
| 2026-05-05 15:42 | 44.09281 | -26.96992 | 36358 ft | 411 kts | 276° |
| 2026-05-05 15:43 | 44.09141 | -27.04946 | 36359 ft | 411 kts | 276° |
| 2026-05-05 15:43 | 44.08996 | -27.12880 | 36359 ft | 409 kts | 276° |
| 2026-05-05 15:44 | 44.08844 | -27.20787 | 36374 ft | 408 kts | 276° |
| 2026-05-05 15:44 | 44.08689 | -27.28673 | 36378 ft | 408 kts | 276° |
| 2026-05-05 15:45 | 44.08530 | -27.36553 | 36385 ft | 407 kts | 276° |
| 2026-05-05 15:45 | 44.08366 | -27.44422 | 36387 ft | 408 kts | 277° |
| 2026-05-05 15:46 | 44.08198 | -27.52247 | 36383 ft | 407 kts | 277° |
| 2026-05-05 15:46 | 44.08021 | -27.60123 | 36384 ft | 407 kts | 277° |
| 2026-05-05 15:47 | 44.07842 | -27.67988 | 36385 ft | 407 kts | 277° |
| 2026-05-05 15:47 | 44.07657 | -27.75845 | 36385 ft | 407 kts | 277° |
| 2026-05-05 15:48 | 44.07464 | -27.83708 | 36383 ft | 407 kts | 277° |
| 2026-05-05 15:48 | 44.07266 | -27.91566 | 36386 ft | 406 kts | 277° |
| 2026-05-05 15:49 | 44.07065 | -27.99408 | 36403 ft | 406 kts | 277° |
| 2026-05-05 15:49 | 44.06854 | -28.07253 | 36410 ft | 406 kts | 277° |
| 2026-05-05 15:50 | 44.06641 | -28.15087 | 36408 ft | 406 kts | 277° |
| 2026-05-05 15:50 | 44.06425 | -28.22934 | 36413 ft | 406 kts | 277° |
| 2026-05-05 15:51 | 44.06201 | -28.30785 | 36414 ft | 406 kts | 276° |
| 2026-05-05 15:51 | 44.05968 | -28.38567 | 36415 ft | 405 kts | 276° |
| 2026-05-05 15:52 | 44.05737 | -28.46388 | 36413 ft | 405 kts | 276° |
| 2026-05-05 15:52 | 44.05500 | -28.54229 | 36414 ft | 405 kts | 276° |
| 2026-05-05 15:53 | 44.05252 | -28.62063 | 36414 ft | 405 kts | 276° |
| 2026-05-05 15:53 | 44.05001 | -28.69881 | 36410 ft | 404 kts | 276° |
| 2026-05-05 15:54 | 44.04745 | -28.77683 | 36415 ft | 404 kts | 276° |
| 2026-05-05 15:54 | 44.04483 | -28.85494 | 36416 ft | 405 kts | 275° |
| 2026-05-05 15:55 | 44.04219 | -28.93291 | 36410 ft | 403 kts | 275° |
| 2026-05-05 15:55 | 44.03954 | -29.01080 | 36413 ft | 404 kts | 275° |
| 2026-05-05 15:56 | 44.03678 | -29.08862 | 36418 ft | 403 kts | 275° |
| 2026-05-05 15:56 | 44.03396 | -29.16592 | 36413 ft | 402 kts | 275° |
| 2026-05-05 15:57 | 44.03112 | -29.24349 | 36410 ft | 402 kts | 275° |
| 2026-05-05 15:57 | 44.02822 | -29.32107 | 36410 ft | 402 kts | 275° |
| 2026-05-05 15:58 | 44.02527 | -29.39856 | 36418 ft | 402 kts | 275° |
| 2026-05-05 15:58 | 44.02229 | -29.47595 | 36420 ft | 401 kts | 275° |
| 2026-05-05 15:59 | 44.01919 | -29.55328 | 36420 ft | 401 kts | 275° |
| 2026-05-05 15:59 | 44.01610 | -29.63068 | 36422 ft | 401 kts | 275° |
| 2026-05-05 16:00 | 44.01295 | -29.70806 | 36423 ft | 401 kts | 275° |
| 2026-05-05 16:00 | 44.00971 | -29.78552 | 36429 ft | 401 kts | 274° |
| 2026-05-05 16:01 | 44.00643 | -29.86297 | 36428 ft | 402 kts | 275° |
| 2026-05-05 16:01 | 44.00312 | -29.94047 | 36430 ft | 402 kts | 274° |
| 2026-05-05 16:02 | 44.00180 | -30.01753 | 36433 ft | 396 kts | 279° |
| 2026-05-05 16:02 | 44.00441 | -30.09381 | 36429 ft | 396 kts | 280° |
| 2026-05-05 16:03 | 44.00770 | -30.17010 | 36431 ft | 396 kts | 280° |
| 2026-05-05 16:03 | 44.01104 | -30.24639 | 36430 ft | 396 kts | 281° |
| 2026-05-05 16:04 | 44.01424 | -30.32272 | 36431 ft | 396 kts | 280° |
| 2026-05-05 16:04 | 44.01730 | -30.39859 | 36429 ft | 396 kts | 280° |
| 2026-05-05 16:05 | 44.02035 | -30.47494 | 36428 ft | 396 kts | 280° |
| 2026-05-05 16:05 | 44.02338 | -30.55202 | 36409 ft | 397 kts | 279° |
| 2026-05-05 16:06 | 44.02631 | -30.62802 | 36404 ft | 396 kts | 279° |
| 2026-05-05 16:06 | 44.02921 | -30.70449 | 36399 ft | 397 kts | 279° |
| 2026-05-05 16:07 | 44.03207 | -30.78109 | 36400 ft | 397 kts | 279° |
| 2026-05-05 16:07 | 44.03487 | -30.85777 | 36411 ft | 397 kts | 279° |
| 2026-05-05 16:08 | 44.03760 | -30.93451 | 36403 ft | 398 kts | 279° |
| 2026-05-05 16:08 | 44.04032 | -31.01123 | 36409 ft | 398 kts | 279° |
| 2026-05-05 16:09 | 44.04295 | -31.08800 | 36406 ft | 398 kts | 279° |
| 2026-05-05 16:09 | 44.04554 | -31.16496 | 36399 ft | 399 kts | 278° |
| 2026-05-05 16:10 | 44.04811 | -31.24194 | 36410 ft | 399 kts | 278° |
| 2026-05-05 16:10 | 44.05064 | -31.31911 | 36397 ft | 401 kts | 278° |
| 2026-05-05 16:11 | 44.05310 | -31.39658 | 36403 ft | 402 kts | 278° |
| 2026-05-05 16:12 | 44.05789 | -31.55185 | 36399 ft | 402 kts | 278° |
| 2026-05-05 16:13 | 44.06357 | -31.74666 | 36490 ft | 407 kts | 278° |
| 2026-05-05 16:13 | 44.06468 | -31.78582 | 36634 ft | 407 kts | 278° |
| 2026-05-05 16:13 | 44.06541 | -31.81180 | 36794 ft | 405 kts | 278° |
| 2026-05-05 16:14 | 44.06749 | -31.88935 | 37381 ft | 399 kts | 278° |
| 2026-05-05 16:14 | 44.06954 | -31.96636 | 37701 ft | 398 kts | 278° |
| 2026-05-05 16:15 | 44.07156 | -32.04327 | 37956 ft | 398 kts | 278° |
| 2026-05-05 16:15 | 44.07350 | -32.12015 | 38213 ft | 398 kts | 278° |
| 2026-05-05 16:16 | 44.07540 | -32.19710 | 38391 ft | 399 kts | 278° |
| 2026-05-05 16:16 | 44.07726 | -32.27423 | 38396 ft | 398 kts | 278° |
| 2026-05-05 16:17 | 44.07996 | -32.38944 | 38393 ft | 397 kts | 278° |
| 2026-05-05 16:18 | 44.08255 | -32.50435 | 38393 ft | 396 kts | 278° |
| 2026-05-05 16:19 | 44.08501 | -32.61919 | 38394 ft | 396 kts | 278° |
| 2026-05-05 16:19 | 44.08734 | -32.73388 | 38394 ft | 395 kts | 277° |
| 2026-05-05 16:20 | 44.09019 | -32.88567 | 38396 ft | 393 kts | 277° |
| 2026-05-05 16:22 | 44.09356 | -33.07535 | 38394 ft | 392 kts | 277° |
| 2026-05-05 16:23 | 44.09600 | -33.22675 | 38385 ft | 391 kts | 277° |
| 2026-05-05 16:23 | 44.09769 | -33.34068 | 38384 ft | 392 kts | 277° |
| 2026-05-05 16:24 | 44.09878 | -33.41655 | 38384 ft | 392 kts | 276° |
| 2026-05-05 16:25 | 44.10029 | -33.53029 | 38385 ft | 392 kts | 276° |
| 2026-05-05 16:25 | 44.10169 | -33.64420 | 38387 ft | 392 kts | 276° |
| 2026-05-05 16:26 | 44.10337 | -33.79639 | 38385 ft | 394 kts | 276° |
| 2026-05-05 16:27 | 44.10414 | -33.87266 | 38384 ft | 394 kts | 276° |
| 2026-05-05 16:27 | 44.10486 | -33.94887 | 38376 ft | 394 kts | 276° |
| 2026-05-05 16:28 | 44.10555 | -34.02511 | 38377 ft | 394 kts | 276° |
| 2026-05-05 16:28 | 44.10616 | -34.10137 | 38375 ft | 394 kts | 276° |
| 2026-05-05 16:29 | 44.10674 | -34.17755 | 38376 ft | 394 kts | 276° |
| 2026-05-05 16:29 | 44.10727 | -34.25383 | 38376 ft | 394 kts | 276° |
| 2026-05-05 16:30 | 44.10771 | -34.33004 | 38376 ft | 394 kts | 276° |
| 2026-05-05 16:30 | 44.10815 | -34.40617 | 38375 ft | 393 kts | 276° |
| 2026-05-05 16:31 | 44.10851 | -34.48163 | 38376 ft | 392 kts | 276° |
| 2026-05-05 16:31 | 44.10883 | -34.55751 | 38376 ft | 392 kts | 275° |
| 2026-05-05 16:32 | 44.10912 | -34.63324 | 38368 ft | 391 kts | 275° |
| 2026-05-05 16:32 | 44.10931 | -34.70884 | 38366 ft | 390 kts | 275° |
| 2026-05-05 16:33 | 44.10947 | -34.78429 | 38367 ft | 390 kts | 275° |
| 2026-05-05 16:33 | 44.10961 | -34.85964 | 38367 ft | 389 kts | 275° |
| 2026-05-05 16:34 | 44.10968 | -34.93477 | 38366 ft | 388 kts | 275° |
| 2026-05-05 16:34 | 44.10968 | -35.00975 | 38367 ft | 387 kts | 275° |
| 2026-05-05 16:35 | 44.10966 | -35.08465 | 38367 ft | 387 kts | 274° |
| 2026-05-05 16:35 | 44.10959 | -35.15951 | 38366 ft | 386 kts | 274° |
| 2026-05-05 16:36 | 44.10947 | -35.23418 | 38357 ft | 386 kts | 274° |
| 2026-05-05 16:36 | 44.10929 | -35.30878 | 38358 ft | 385 kts | 274° |
| 2026-05-05 16:37 | 44.10907 | -35.38336 | 38357 ft | 386 kts | 274° |
| 2026-05-05 16:37 | 44.10881 | -35.45798 | 38357 ft | 385 kts | 274° |
| 2026-05-05 16:38 | 44.10849 | -35.53252 | 38340 ft | 385 kts | 274° |
| 2026-05-05 16:38 | 44.10806 | -35.60706 | 38331 ft | 385 kts | 274° |
| 2026-05-05 16:39 | 44.10765 | -35.68158 | 38329 ft | 385 kts | 274° |
| 2026-05-05 16:39 | 44.10720 | -35.75611 | 38330 ft | 385 kts | 274° |
| 2026-05-05 16:40 | 44.10670 | -35.83058 | 38330 ft | 385 kts | 274° |
| 2026-05-05 16:40 | 44.10613 | -35.90468 | 38330 ft | 386 kts | 274° |
| 2026-05-05 16:41 | 44.10551 | -35.97926 | 38330 ft | 385 kts | 274° |
| 2026-05-05 16:41 | 44.10485 | -36.05375 | 38331 ft | 385 kts | 274° |
| 2026-05-05 16:42 | 44.10413 | -36.12832 | 38323 ft | 385 kts | 274° |
| 2026-05-05 16:42 | 44.10337 | -36.20287 | 38321 ft | 386 kts | 274° |
| 2026-05-05 16:43 | 44.10257 | -36.27746 | 38321 ft | 385 kts | 273° |
| 2026-05-05 16:43 | 44.10169 | -36.35192 | 38321 ft | 385 kts | 273° |
| 2026-05-05 16:44 | 44.10079 | -36.42633 | 38321 ft | 384 kts | 273° |
| 2026-05-05 16:44 | 44.09986 | -36.50051 | 38321 ft | 383 kts | 273° |
| 2026-05-05 16:45 | 44.09884 | -36.57468 | 38318 ft | 384 kts | 273° |
| 2026-05-05 16:45 | 44.09781 | -36.64890 | 38313 ft | 384 kts | 273° |
| 2026-05-05 16:46 | 44.09674 | -36.72300 | 38311 ft | 382 kts | 272° |
| 2026-05-05 16:46 | 44.09563 | -36.79689 | 38311 ft | 382 kts | 272° |
| 2026-05-05 16:47 | 44.09447 | -36.87068 | 38312 ft | 381 kts | 272° |
| 2026-05-05 16:47 | 44.09323 | -36.94434 | 38313 ft | 381 kts | 272° |
| 2026-05-05 16:48 | 44.09192 | -37.01783 | 38305 ft | 380 kts | 272° |
| 2026-05-05 16:48 | 44.09061 | -37.09122 | 38302 ft | 379 kts | 272° |
| 2026-05-05 16:49 | 44.08925 | -37.16401 | 38318 ft | 379 kts | 271° |
| 2026-05-05 16:49 | 44.08784 | -37.23717 | 38322 ft | 378 kts | 271° |
| 2026-05-05 16:50 | 44.08639 | -37.31017 | 38321 ft | 377 kts | 271° |
| 2026-05-05 16:50 | 44.08489 | -37.38309 | 38321 ft | 376 kts | 271° |
| 2026-05-05 16:51 | 44.08337 | -37.45591 | 38321 ft | 377 kts | 271° |
| 2026-05-05 16:51 | 44.08179 | -37.52877 | 38313 ft | 378 kts | 271° |
| 2026-05-05 16:52 | 44.08017 | -37.60181 | 38312 ft | 378 kts | 271° |
| 2026-05-05 16:52 | 44.07847 | -37.67490 | 38313 ft | 378 kts | 271° |
| 2026-05-05 16:53 | 44.07673 | -37.74800 | 38312 ft | 378 kts | 271° |
| 2026-05-05 16:53 | 44.07494 | -37.82098 | 38312 ft | 378 kts | 271° |
| 2026-05-05 16:54 | 44.07314 | -37.89393 | 38312 ft | 378 kts | 271° |
| 2026-05-05 16:54 | 44.07129 | -37.96697 | 38303 ft | 378 kts | 271° |
| 2026-05-05 16:55 | 44.06936 | -38.03995 | 38303 ft | 378 kts | 270° |
| 2026-05-05 16:55 | 44.06740 | -38.11292 | 38302 ft | 377 kts | 271° |
| 2026-05-05 16:56 | 44.06543 | -38.18573 | 38303 ft | 377 kts | 271° |
| 2026-05-05 16:56 | 44.06337 | -38.25874 | 38303 ft | 378 kts | 270° |
| 2026-05-05 16:57 | 44.06126 | -38.33159 | 38295 ft | 376 kts | 270° |
| 2026-05-05 16:57 | 44.05910 | -38.40425 | 38295 ft | 376 kts | 270° |
| 2026-05-05 16:58 | 44.05693 | -38.47643 | 38294 ft | 376 kts | 270° |
| 2026-05-05 16:58 | 44.05468 | -38.54938 | 38294 ft | 375 kts | 270° |
| 2026-05-05 16:59 | 44.05243 | -38.62129 | 38289 ft | 374 kts | 270° |
| 2026-05-05 16:59 | 44.05013 | -38.69357 | 38285 ft | 374 kts | 270° |
| 2026-05-05 17:00 | 44.04783 | -38.76581 | 38284 ft | 373 kts | 269° |
| 2026-05-05 17:00 | 44.04544 | -38.83776 | 38281 ft | 372 kts | 269° |
| 2026-05-05 17:01 | 44.04297 | -38.90942 | 38281 ft | 371 kts | 269° |
| 2026-05-05 17:01 | 44.04093 | -38.96907 | 38283 ft | 371 kts | 269° |
| 2026-05-05 17:02 | 44.03843 | -39.04114 | 38278 ft | 370 kts | 269° |
| 2026-05-05 17:02 | 44.03587 | -39.11254 | 38274 ft | 370 kts | 269° |
| 2026-05-05 17:03 | 44.03330 | -39.18337 | 38273 ft | 369 kts | 269° |
| 2026-05-05 17:03 | 44.03068 | -39.25447 | 38277 ft | 369 kts | 268° |
| 2026-05-05 17:04 | 44.02804 | -39.32557 | 38274 ft | 368 kts | 268° |
| 2026-05-05 17:04 | 44.02533 | -39.39655 | 38268 ft | 368 kts | 268° |
| 2026-05-05 17:05 | 44.02259 | -39.46752 | 38267 ft | 368 kts | 268° |
| 2026-05-05 17:05 | 44.01978 | -39.53837 | 38266 ft | 367 kts | 268° |
| 2026-05-05 17:06 | 44.01696 | -39.60909 | 38267 ft | 367 kts | 268° |
| 2026-05-05 17:06 | 44.01409 | -39.67975 | 38262 ft | 366 kts | 268° |
| 2026-05-05 17:07 | 44.01117 | -39.75033 | 38258 ft | 366 kts | 268° |
| 2026-05-05 17:07 | 44.00823 | -39.82092 | 38256 ft | 366 kts | 268° |
| 2026-05-05 17:08 | 44.00524 | -39.89144 | 38257 ft | 366 kts | 267° |
| 2026-05-05 17:08 | 44.00220 | -39.96193 | 38256 ft | 365 kts | 267° |
| 2026-05-05 17:09 | 44.00214 | -40.03244 | 38250 ft | 365 kts | 272° |
| 2026-05-05 17:09 | 44.00476 | -40.10299 | 38247 ft | 366 kts | 273° |
| 2026-05-05 17:10 | 44.00785 | -40.17355 | 38247 ft | 366 kts | 273° |
| 2026-05-05 17:10 | 44.01090 | -40.24411 | 38248 ft | 366 kts | 273° |
| 2026-05-05 17:11 | 44.01384 | -40.31471 | 38248 ft | 366 kts | 273° |
| 2026-05-05 17:11 | 44.01673 | -40.38529 | 38240 ft | 366 kts | 272° |
| 2026-05-05 17:12 | 44.01956 | -40.45576 | 38238 ft | 365 kts | 272° |
| 2026-05-05 17:12 | 44.02233 | -40.52621 | 38228 ft | 365 kts | 272° |
| 2026-05-05 17:13 | 44.02504 | -40.59668 | 38241 ft | 365 kts | 272° |
| 2026-05-05 17:13 | 44.02774 | -40.66720 | 38228 ft | 365 kts | 272° |
| 2026-05-05 17:14 | 44.03041 | -40.73756 | 38231 ft | 365 kts | 272° |
| 2026-05-05 17:14 | 44.03304 | -40.80800 | 38225 ft | 365 kts | 272° |
| 2026-05-05 17:15 | 44.03558 | -40.87849 | 38229 ft | 365 kts | 271° |
| 2026-05-05 17:15 | 44.03811 | -40.94886 | 38229 ft | 364 kts | 271° |
| 2026-05-05 17:16 | 44.04060 | -41.01928 | 38223 ft | 364 kts | 271° |
| 2026-05-05 17:16 | 44.04301 | -41.08968 | 38220 ft | 365 kts | 271° |
| 2026-05-05 17:17 | 44.04534 | -41.15956 | 38217 ft | 364 kts | 271° |
| 2026-05-05 17:17 | 44.04765 | -41.22986 | 38225 ft | 364 kts | 271° |
| 2026-05-05 17:18 | 44.04993 | -41.30010 | 38217 ft | 364 kts | 271° |
| 2026-05-05 17:18 | 44.05219 | -41.37038 | 38216 ft | 364 kts | 271° |
| 2026-05-05 17:19 | 44.05439 | -41.44070 | 38209 ft | 364 kts | 270° |
| 2026-05-05 17:19 | 44.05656 | -41.51104 | 38210 ft | 364 kts | 270° |
| 2026-05-05 17:20 | 44.05869 | -41.58139 | 38208 ft | 364 kts | 270° |
| 2026-05-05 17:20 | 44.06078 | -41.65180 | 38214 ft | 365 kts | 270° |
| 2026-05-05 17:21 | 44.06283 | -41.72232 | 38205 ft | 365 kts | 270° |
| 2026-05-05 17:22 | 44.06582 | -41.82811 | 38202 ft | 365 kts | 270° |
| 2026-05-05 17:22 | 44.06773 | -41.89873 | 38202 ft | 365 kts | 270° |
| 2026-05-05 17:23 | 44.06962 | -41.96923 | 38202 ft | 365 kts | 270° |
| 2026-05-05 17:23 | 44.07147 | -42.03984 | 38193 ft | 365 kts | 270° |
| 2026-05-05 17:24 | 44.07327 | -42.11036 | 38193 ft | 365 kts | 270° |
| 2026-05-05 17:24 | 44.07503 | -42.18085 | 38193 ft | 365 kts | 270° |
| 2026-05-05 17:25 | 44.07675 | -42.25138 | 38193 ft | 365 kts | 270° |
| 2026-05-05 17:25 | 44.07842 | -42.32192 | 38186 ft | 364 kts | 270° |
| 2026-05-05 17:26 | 44.08004 | -42.39228 | 38184 ft | 364 kts | 270° |
| 2026-05-05 17:26 | 44.08164 | -42.46259 | 38182 ft | 363 kts | 270° |
| 2026-05-05 17:27 | 44.08315 | -42.53274 | 38184 ft | 363 kts | 269° |
| 2026-05-05 17:27 | 44.08461 | -42.60289 | 38181 ft | 363 kts | 269° |
| 2026-05-05 17:28 | 44.08607 | -42.67299 | 38176 ft | 363 kts | 269° |
| 2026-05-05 17:28 | 44.08747 | -42.74298 | 38174 ft | 362 kts | 269° |
| 2026-05-05 17:29 | 44.08883 | -42.81280 | 38174 ft | 361 kts | 269° |
| 2026-05-05 17:29 | 44.09015 | -42.88255 | 38174 ft | 360 kts | 269° |
| 2026-05-05 17:30 | 44.09139 | -42.95177 | 38168 ft | 360 kts | 269° |
| 2026-05-05 17:30 | 44.09264 | -43.02137 | 38161 ft | 360 kts | 269° |
| 2026-05-05 17:31 | 44.09384 | -43.09092 | 38160 ft | 360 kts | 269° |
| 2026-05-05 17:31 | 44.09496 | -43.16050 | 38169 ft | 359 kts | 269° |
| 2026-05-05 17:32 | 44.09605 | -43.22995 | 38164 ft | 359 kts | 269° |
| 2026-05-05 17:32 | 44.09710 | -43.29941 | 38159 ft | 359 kts | 269° |
| 2026-05-05 17:33 | 44.09810 | -43.36884 | 38150 ft | 359 kts | 269° |
| 2026-05-05 17:33 | 44.09905 | -43.43837 | 38150 ft | 359 kts | 269° |
| 2026-05-05 17:34 | 44.09999 | -43.50788 | 38159 ft | 359 kts | 269° |
| 2026-05-05 17:34 | 44.10090 | -43.57742 | 38139 ft | 359 kts | 269° |
| 2026-05-05 17:35 | 44.10174 | -43.64697 | 38143 ft | 359 kts | 269° |
| 2026-05-05 17:35 | 44.10254 | -43.71660 | 38144 ft | 360 kts | 269° |
| 2026-05-05 17:36 | 44.10330 | -43.78624 | 38155 ft | 360 kts | 269° |
| 2026-05-05 17:36 | 44.10400 | -43.85584 | 38146 ft | 360 kts | 269° |
| 2026-05-05 17:37 | 44.10468 | -43.92550 | 38144 ft | 360 kts | 269° |
| 2026-05-05 17:37 | 44.10531 | -43.99522 | 38133 ft | 360 kts | 269° |
| 2026-05-05 17:38 | 44.10587 | -44.06499 | 38135 ft | 361 kts | 269° |
| 2026-05-05 17:38 | 44.10642 | -44.13468 | 38141 ft | 360 kts | 269° |
| 2026-05-05 17:39 | 44.10693 | -44.20441 | 38135 ft | 360 kts | 269° |
| 2026-05-05 17:39 | 44.10739 | -44.27359 | 38128 ft | 360 kts | 268° |
| 2026-05-05 17:40 | 44.10782 | -44.34322 | 38128 ft | 359 kts | 268° |
| 2026-05-05 17:40 | 44.10822 | -44.41267 | 38127 ft | 359 kts | 268° |
| 2026-05-05 17:41 | 44.10853 | -44.48212 | 38129 ft | 359 kts | 268° |
| 2026-05-05 17:41 | 44.10880 | -44.55146 | 38122 ft | 358 kts | 268° |
| 2026-05-05 17:42 | 44.10903 | -44.62076 | 38118 ft | 358 kts | 268° |
| 2026-05-05 17:42 | 44.10927 | -44.68998 | 38119 ft | 357 kts | 268° |
| 2026-05-05 17:43 | 44.10943 | -44.75911 | 38118 ft | 357 kts | 267° |
| 2026-05-05 17:43 | 44.10953 | -44.82814 | 38119 ft | 356 kts | 267° |
| 2026-05-05 17:44 | 44.10962 | -44.89707 | 38111 ft | 356 kts | 267° |
| 2026-05-05 17:44 | 44.10968 | -44.96595 | 38111 ft | 356 kts | 266° |
| 2026-05-05 17:45 | 44.10970 | -45.03475 | 38109 ft | 355 kts | 266° |
| 2026-05-05 17:45 | 44.10971 | -45.09188 | 38109 ft | 355 kts | 266° |
| 2026-05-05 17:46 | 44.10962 | -45.16042 | 38108 ft | 354 kts | 266° |
| 2026-05-05 17:46 | 44.10948 | -45.22876 | 38112 ft | 353 kts | 266° |
| 2026-05-05 17:47 | 44.10929 | -45.29696 | 38102 ft | 353 kts | 266° |
| 2026-05-05 17:47 | 44.10906 | -45.36512 | 38101 ft | 352 kts | 266° |
| 2026-05-05 17:48 | 44.10886 | -45.43320 | 38097 ft | 351 kts | 266° |
| 2026-05-05 17:48 | 44.10858 | -45.50108 | 38073 ft | 350 kts | 266° |
| 2026-05-05 17:49 | 44.10826 | -45.56881 | 38073 ft | 350 kts | 266° |
| 2026-05-05 17:49 | 44.10790 | -45.63651 | 38072 ft | 349 kts | 265° |
| 2026-05-05 17:50 | 44.10751 | -45.70396 | 38064 ft | 349 kts | 265° |
| 2026-05-05 17:50 | 44.10710 | -45.77158 | 38064 ft | 348 kts | 265° |
| 2026-05-05 17:51 | 44.10661 | -45.83893 | 38064 ft | 348 kts | 265° |
| 2026-05-05 17:51 | 44.10608 | -45.90621 | 38064 ft | 347 kts | 265° |
| 2026-05-05 17:52 | 44.10559 | -45.97295 | 38064 ft | 347 kts | 265° |
| 2026-05-05 17:52 | 44.10502 | -46.04008 | 38063 ft | 347 kts | 265° |
| 2026-05-05 17:53 | 44.10439 | -46.10720 | 38064 ft | 347 kts | 265° |
| 2026-05-05 17:53 | 44.10373 | -46.17431 | 38054 ft | 347 kts | 265° |
| 2026-05-05 17:54 | 44.10297 | -46.24160 | 38054 ft | 348 kts | 265° |
| 2026-05-05 17:54 | 44.10222 | -46.30888 | 38053 ft | 347 kts | 265° |
| 2026-05-05 17:55 | 44.10141 | -46.37626 | 38055 ft | 349 kts | 265° |
| 2026-05-05 17:55 | 44.10058 | -46.44385 | 38054 ft | 350 kts | 265° |
| 2026-05-05 17:56 | 44.09971 | -46.51156 | 38055 ft | 350 kts | 265° |
| 2026-05-05 17:56 | 44.09879 | -46.57940 | 38054 ft | 352 kts | 265° |
| 2026-05-05 17:57 | 44.09786 | -46.64754 | 38045 ft | 352 kts | 264° |
| 2026-05-05 17:57 | 44.09685 | -46.71578 | 38046 ft | 354 kts | 265° |
| 2026-05-05 17:58 | 44.09579 | -46.78426 | 38046 ft | 355 kts | 264° |
| 2026-05-05 17:58 | 44.09468 | -46.85307 | 38046 ft | 356 kts | 264° |
| 2026-05-05 17:59 | 44.09357 | -46.92195 | 38045 ft | 356 kts | 264° |
| 2026-05-05 17:59 | 44.09237 | -46.99087 | 38046 ft | 357 kts | 264° |
| 2026-05-05 18:00 | 44.09116 | -47.05990 | 38045 ft | 357 kts | 264° |
| 2026-05-05 18:00 | 44.08991 | -47.12905 | 38045 ft | 358 kts | 264° |
| 2026-05-05 18:01 | 44.08864 | -47.19848 | 38038 ft | 359 kts | 264° |
| 2026-05-05 18:01 | 44.08733 | -47.26790 | 38035 ft | 359 kts | 264° |
| 2026-05-05 18:02 | 44.08591 | -47.33725 | 38036 ft | 359 kts | 263° |
| 2026-05-05 18:02 | 44.08443 | -47.40671 | 38037 ft | 360 kts | 263° |
| 2026-05-05 18:03 | 44.08295 | -47.47608 | 38035 ft | 359 kts | 263° |
| 2026-05-05 18:03 | 44.08143 | -47.54532 | 38035 ft | 358 kts | 263° |
| 2026-05-05 18:04 | 44.07988 | -47.61437 | 38036 ft | 357 kts | 263° |
| 2026-05-05 18:04 | 44.07827 | -47.68341 | 38036 ft | 358 kts | 263° |
| 2026-05-05 18:05 | 44.07661 | -47.75267 | 38035 ft | 358 kts | 263° |
| 2026-05-05 18:05 | 44.07489 | -47.82186 | 38023 ft | 358 kts | 263° |
| 2026-05-05 18:06 | 44.07318 | -47.89085 | 38024 ft | 356 kts | 263° |
| 2026-05-05 18:06 | 44.07151 | -47.95919 | 38030 ft | 357 kts | 263° |
| 2026-05-05 18:07 | 44.06970 | -48.02817 | 38028 ft | 357 kts | 263° |
| 2026-05-05 18:07 | 44.06785 | -48.09709 | 38025 ft | 357 kts | 263° |
| 2026-05-05 18:08 | 44.06599 | -48.16600 | 38024 ft | 357 kts | 263° |
| 2026-05-05 18:08 | 44.06406 | -48.23482 | 38027 ft | 354 kts | 262° |
| 2026-05-05 18:09 | 44.06206 | -48.30314 | 38023 ft | 354 kts | 262° |
| 2026-05-05 18:09 | 44.06011 | -48.37147 | 38032 ft | 354 kts | 262° |
| 2026-05-05 18:10 | 44.05804 | -48.44009 | 38029 ft | 355 kts | 263° |
| 2026-05-05 18:10 | 44.05600 | -48.50900 | 38018 ft | 358 kts | 262° |
| 2026-05-05 18:11 | 44.05387 | -48.57818 | 38017 ft | 359 kts | 262° |
| 2026-05-05 18:11 | 44.05161 | -48.64775 | 38017 ft | 361 kts | 263° |
| 2026-05-05 18:12 | 44.04936 | -48.71748 | 38017 ft | 362 kts | 263° |
| 2026-05-05 18:12 | 44.04704 | -48.78765 | 38018 ft | 364 kts | 263° |
| 2026-05-05 18:13 | 44.04469 | -48.85813 | 38018 ft | 366 kts | 263° |
| 2026-05-05 18:13 | 44.04227 | -48.92895 | 38017 ft | 368 kts | 263° |
| 2026-05-05 18:14 | 44.03984 | -48.99959 | 38017 ft | 369 kts | 263° |
| 2026-05-05 18:14 | 44.03733 | -49.07101 | 38017 ft | 371 kts | 263° |
| 2026-05-05 18:15 | 44.03474 | -49.14280 | 38018 ft | 373 kts | 263° |
| 2026-05-05 18:15 | 44.03212 | -49.21482 | 38018 ft | 374 kts | 263° |
| 2026-05-05 18:16 | 44.02943 | -49.28713 | 38018 ft | 375 kts | 263° |
| 2026-05-05 18:16 | 44.02669 | -49.35958 | 38017 ft | 377 kts | 263° |
| 2026-05-05 18:17 | 44.02391 | -49.43227 | 38008 ft | 377 kts | 263° |
| 2026-05-05 18:17 | 44.02107 | -49.50505 | 38009 ft | 377 kts | 263° |
| 2026-05-05 18:18 | 44.01818 | -49.57786 | 38023 ft | 377 kts | 263° |
| 2026-05-05 18:18 | 44.01523 | -49.65082 | 38025 ft | 378 kts | 263° |
| 2026-05-05 18:19 | 44.01226 | -49.72378 | 38027 ft | 378 kts | 263° |
| 2026-05-05 18:19 | 44.00922 | -49.79670 | 38028 ft | 378 kts | 263° |
| 2026-05-05 18:20 | 44.00614 | -49.86965 | 38030 ft | 378 kts | 263° |
| 2026-05-05 18:20 | 44.00302 | -49.94255 | 38025 ft | 378 kts | 263° |
| 2026-05-05 18:21 | 44.00355 | -50.01593 | 38030 ft | 384 kts | 271° |
| 2026-05-05 18:21 | 44.01139 | -50.08958 | 38024 ft | 387 kts | 274° |
| 2026-05-05 18:22 | 44.02064 | -50.16310 | 38017 ft | 386 kts | 274° |
| 2026-05-05 18:22 | 44.03006 | -50.23668 | 38018 ft | 387 kts | 274° |
| 2026-05-05 18:23 | 44.03932 | -50.31039 | 38017 ft | 387 kts | 274° |
| 2026-05-05 18:23 | 44.04843 | -50.38426 | 38018 ft | 388 kts | 274° |
| 2026-05-05 18:24 | 44.05745 | -50.45813 | 38017 ft | 388 kts | 274° |
| 2026-05-05 18:24 | 44.06646 | -50.53213 | 38018 ft | 389 kts | 274° |
| 2026-05-05 18:25 | 44.07545 | -50.60634 | 38018 ft | 390 kts | 274° |
| 2026-05-05 18:25 | 44.08437 | -50.68071 | 38017 ft | 390 kts | 274° |
| 2026-05-05 18:26 | 44.09327 | -50.75533 | 38017 ft | 392 kts | 274° |
| 2026-05-05 18:26 | 44.10220 | -50.83018 | 38016 ft | 392 kts | 274° |
| 2026-05-05 18:27 | 44.11107 | -50.90512 | 38017 ft | 393 kts | 274° |
| 2026-05-05 18:27 | 44.11991 | -50.98029 | 38018 ft | 395 kts | 275° |
| 2026-05-05 18:28 | 44.13313 | -51.09356 | 38017 ft | 395 kts | 275° |
| 2026-05-05 18:28 | 44.14188 | -51.16916 | 38018 ft | 396 kts | 275° |
| 2026-05-05 18:29 | 44.15052 | -51.24437 | 38016 ft | 396 kts | 275° |
| 2026-05-05 18:29 | 44.15922 | -51.32028 | 38017 ft | 397 kts | 275° |
| 2026-05-05 18:30 | 44.16790 | -51.39631 | 38018 ft | 398 kts | 275° |
| 2026-05-05 18:30 | 44.17652 | -51.47251 | 38010 ft | 398 kts | 275° |
| 2026-05-05 18:31 | 44.18368 | -51.53642 | 38009 ft | 398 kts | 275° |
| 2026-05-05 18:31 | 44.19219 | -51.61275 | 38008 ft | 399 kts | 275° |
| 2026-05-05 18:32 | 44.20060 | -51.68858 | 37903 ft | 399 kts | 275° |
| 2026-05-05 18:32 | 44.20903 | -51.76486 | 37766 ft | 398 kts | 274° |
| 2026-05-05 18:33 | 44.21738 | -51.84112 | 37650 ft | 398 kts | 274° |
| 2026-05-05 18:33 | 44.22572 | -51.91739 | 37723 ft | 398 kts | 274° |
| 2026-05-05 18:34 | 44.23399 | -51.99364 | 37713 ft | 398 kts | 274° |
| 2026-05-05 18:34 | 44.24220 | -52.06993 | 37716 ft | 398 kts | 274° |
| 2026-05-05 18:35 | 44.25037 | -52.14635 | 37723 ft | 398 kts | 274° |
| 2026-05-05 18:35 | 44.25849 | -52.22285 | 37713 ft | 399 kts | 274° |
| 2026-05-05 18:36 | 44.26657 | -52.29947 | 37729 ft | 399 kts | 274° |
| 2026-05-05 18:36 | 44.27460 | -52.37605 | 37713 ft | 398 kts | 274° |
| 2026-05-05 18:37 | 44.28256 | -52.45252 | 37713 ft | 398 kts | 274° |
| 2026-05-05 18:37 | 44.29046 | -52.52903 | 37721 ft | 399 kts | 275° |
| 2026-05-05 18:38 | 44.29834 | -52.60572 | 37715 ft | 399 kts | 275° |
| 2026-05-05 18:38 | 44.30617 | -52.68238 | 37731 ft | 399 kts | 275° |
| 2026-05-05 18:39 | 44.31395 | -52.75912 | 37740 ft | 399 kts | 275° |
| 2026-05-05 18:39 | 44.32163 | -52.83585 | 37823 ft | 399 kts | 275° |
| 2026-05-05 18:40 | 44.32930 | -52.91264 | 37822 ft | 399 kts | 275° |
| 2026-05-05 18:40 | 44.33695 | -52.98945 | 37822 ft | 399 kts | 275° |
| 2026-05-05 18:41 | 44.34451 | -53.06631 | 37847 ft | 400 kts | 275° |
| 2026-05-05 18:41 | 44.35202 | -53.14319 | 37850 ft | 399 kts | 275° |
| 2026-05-05 18:42 | 44.35947 | -53.21947 | 37859 ft | 399 kts | 275° |
| 2026-05-05 18:42 | 44.36690 | -53.29632 | 37858 ft | 399 kts | 275° |
| 2026-05-05 18:43 | 44.37423 | -53.37304 | 37858 ft | 398 kts | 275° |
| 2026-05-05 18:43 | 44.38152 | -53.44967 | 37868 ft | 397 kts | 275° |
| 2026-05-05 18:44 | 44.38875 | -53.52611 | 37880 ft | 397 kts | 275° |
| 2026-05-05 18:44 | 44.39590 | -53.60260 | 37868 ft | 396 kts | 275° |
| 2026-05-05 18:45 | 44.40300 | -53.67903 | 37880 ft | 396 kts | 275° |
| 2026-05-05 18:45 | 44.41003 | -53.75533 | 37878 ft | 395 kts | 275° |
| 2026-05-05 18:46 | 44.41703 | -53.83166 | 37881 ft | 396 kts | 274° |
| 2026-05-05 18:46 | 44.42398 | -53.90799 | 37887 ft | 395 kts | 274° |
| 2026-05-05 18:47 | 44.43086 | -53.98424 | 38077 ft | 395 kts | 274° |
| 2026-05-05 18:47 | 44.43426 | -54.02230 | 38288 ft | 394 kts | 274° |
| 2026-05-05 18:47 | 44.43765 | -54.06029 | 38482 ft | 393 kts | 274° |
| 2026-05-05 18:48 | 44.44103 | -54.09823 | 38664 ft | 393 kts | 274° |
| 2026-05-05 18:48 | 44.44440 | -54.13612 | 38842 ft | 392 kts | 274° |
| 2026-05-05 18:48 | 44.44775 | -54.17396 | 38989 ft | 392 kts | 274° |
| 2026-05-05 18:48 | 44.45108 | -54.21183 | 39105 ft | 392 kts | 274° |
| 2026-05-05 18:49 | 44.45440 | -54.24979 | 39211 ft | 393 kts | 274° |
| 2026-05-05 18:49 | 44.45772 | -54.28786 | 39298 ft | 395 kts | 274° |
| 2026-05-05 18:49 | 44.46435 | -54.36429 | 39468 ft | 397 kts | 274° |
| 2026-05-05 18:50 | 44.46766 | -54.40266 | 39571 ft | 398 kts | 274° |
| 2026-05-05 18:50 | 44.47098 | -54.44114 | 39672 ft | 398 kts | 274° |
| 2026-05-05 18:50 | 44.47756 | -54.51833 | 39835 ft | 400 kts | 274° |
| 2026-05-05 18:51 | 44.48415 | -54.59603 | 39921 ft | 404 kts | 274° |
| 2026-05-05 18:51 | 44.49068 | -54.67370 | 39921 ft | 405 kts | 274° |
| 2026-05-05 18:52 | 44.49726 | -54.75257 | 39925 ft | 405 kts | 274° |
| 2026-05-05 18:52 | 44.50368 | -54.83105 | 39923 ft | 406 kts | 274° |
| 2026-05-05 18:53 | 44.51014 | -54.90972 | 39933 ft | 407 kts | 274° |
| 2026-05-05 18:53 | 44.51650 | -54.98792 | 39934 ft | 408 kts | 274° |
| 2026-05-05 18:54 | 44.52288 | -55.06692 | 39942 ft | 408 kts | 274° |
| 2026-05-05 18:54 | 44.52922 | -55.14590 | 39944 ft | 408 kts | 274° |
| 2026-05-05 18:55 | 44.53548 | -55.22501 | 39945 ft | 409 kts | 274° |
| 2026-05-05 18:55 | 44.54171 | -55.30432 | 39950 ft | 410 kts | 274° |
| 2026-05-05 18:56 | 44.54786 | -55.38364 | 39955 ft | 409 kts | 274° |
| 2026-05-05 18:56 | 44.55402 | -55.46293 | 39962 ft | 410 kts | 274° |
| 2026-05-05 18:57 | 44.56307 | -55.54193 | 39966 ft | 411 kts | 277° |
| 2026-05-05 18:57 | 44.57357 | -55.62079 | 39962 ft | 411 kts | 277° |
| 2026-05-05 18:58 | 44.58403 | -55.69962 | 39976 ft | 411 kts | 277° |
| 2026-05-05 18:58 | 44.59438 | -55.77851 | 39963 ft | 411 kts | 277° |
| 2026-05-05 18:59 | 44.60471 | -55.85746 | 39976 ft | 412 kts | 277° |
| 2026-05-05 18:59 | 44.61497 | -55.93661 | 39977 ft | 412 kts | 277° |
| 2026-05-05 19:00 | 44.62518 | -56.01575 | 39981 ft | 412 kts | 277° |
| 2026-05-05 19:00 | 44.63534 | -56.09484 | 39986 ft | 411 kts | 277° |
| 2026-05-05 19:01 | 44.64549 | -56.17410 | 39990 ft | 413 kts | 277° |
| 2026-05-05 19:01 | 44.65549 | -56.25287 | 40021 ft | 413 kts | 277° |
| 2026-05-05 19:02 | 44.66551 | -56.33227 | 40062 ft | 413 kts | 277° |
| 2026-05-05 19:02 | 44.67549 | -56.41183 | 40065 ft | 414 kts | 277° |
| 2026-05-05 19:03 | 44.68543 | -56.49149 | 40058 ft | 415 kts | 277° |
| 2026-05-05 19:03 | 44.69538 | -56.57132 | 40060 ft | 415 kts | 277° |
| 2026-05-05 19:04 | 44.70526 | -56.65137 | 40056 ft | 415 kts | 277° |
| 2026-05-05 19:04 | 44.71499 | -56.73119 | 40070 ft | 414 kts | 277° |
| 2026-05-05 19:05 | 44.72471 | -56.81115 | 40063 ft | 415 kts | 277° |
| 2026-05-05 19:05 | 44.73439 | -56.89140 | 40060 ft | 416 kts | 277° |
| 2026-05-05 19:06 | 44.74405 | -56.97178 | 40064 ft | 416 kts | 277° |
| 2026-05-05 19:06 | 44.75366 | -57.05225 | 40060 ft | 417 kts | 277° |
| 2026-05-05 19:07 | 44.76162 | -57.11913 | 40062 ft | 417 kts | 277° |
| 2026-05-05 19:07 | 44.77276 | -57.21323 | 40061 ft | 417 kts | 277° |
| 2026-05-05 19:08 | 44.78220 | -57.29378 | 40062 ft | 417 kts | 277° |
| 2026-05-05 19:08 | 44.79160 | -57.37447 | 40060 ft | 419 kts | 277° |
| 2026-05-05 19:09 | 44.80104 | -57.45556 | 40060 ft | 419 kts | 277° |
| 2026-05-05 19:09 | 44.81028 | -57.53624 | 40067 ft | 417 kts | 277° |
| 2026-05-05 19:10 | 44.81957 | -57.61705 | 40058 ft | 418 kts | 277° |
| 2026-05-05 19:10 | 44.82877 | -57.69774 | 40073 ft | 417 kts | 277° |
| 2026-05-05 19:11 | 44.83781 | -57.77839 | 40063 ft | 417 kts | 277° |
| 2026-05-05 19:11 | 44.84688 | -57.85929 | 40073 ft | 418 kts | 276° |
| 2026-05-05 19:12 | 44.85589 | -57.93991 | 40059 ft | 420 kts | 277° |
| 2026-05-05 19:12 | 44.86486 | -58.02101 | 40070 ft | 419 kts | 277° |
| 2026-05-05 19:13 | 44.87383 | -58.10230 | 40066 ft | 419 kts | 277° |
| 2026-05-05 19:13 | 44.88263 | -58.18362 | 40064 ft | 420 kts | 277° |
| 2026-05-05 19:14 | 44.89157 | -58.26538 | 40057 ft | 421 kts | 277° |
| 2026-05-05 19:14 | 44.90032 | -58.34674 | 40065 ft | 420 kts | 277° |
| 2026-05-05 19:15 | 44.90903 | -58.42810 | 40065 ft | 419 kts | 277° |
| 2026-05-05 19:15 | 44.91761 | -58.50954 | 40057 ft | 421 kts | 277° |
| 2026-05-05 19:16 | 44.92476 | -58.57737 | 40062 ft | 420 kts | 277° |
| 2026-05-05 19:16 | 44.93333 | -58.65872 | 40062 ft | 420 kts | 277° |
| 2026-05-05 19:17 | 44.94188 | -58.74028 | 40058 ft | 419 kts | 277° |
| 2026-05-05 19:17 | 44.95027 | -58.82169 | 40067 ft | 420 kts | 277° |
| 2026-05-05 19:18 | 44.95861 | -58.90332 | 40063 ft | 420 kts | 277° |
| 2026-05-05 19:18 | 44.96693 | -58.98498 | 40075 ft | 420 kts | 277° |
| 2026-05-05 19:19 | 44.97520 | -59.06660 | 40067 ft | 419 kts | 277° |
| 2026-05-05 19:19 | 44.98339 | -59.14807 | 40071 ft | 419 kts | 277° |
| 2026-05-05 19:20 | 44.99150 | -59.22967 | 40056 ft | 420 kts | 277° |
| 2026-05-05 19:20 | 44.99966 | -59.31159 | 40072 ft | 421 kts | 277° |
| 2026-05-05 19:21 | 45.00770 | -59.39345 | 40069 ft | 421 kts | 277° |
| 2026-05-05 19:21 | 45.01564 | -59.47525 | 40064 ft | 420 kts | 277° |
| 2026-05-05 19:22 | 45.02356 | -59.55709 | 40053 ft | 420 kts | 277° |
| 2026-05-05 19:22 | 45.03139 | -59.63882 | 40050 ft | 420 kts | 277° |
| 2026-05-05 19:23 | 45.03921 | -59.72083 | 40056 ft | 422 kts | 277° |
| 2026-05-05 19:23 | 45.04684 | -59.80218 | 40063 ft | 419 kts | 277° |
| 2026-05-05 19:24 | 45.05455 | -59.88403 | 40049 ft | 421 kts | 277° |
| 2026-05-05 19:24 | 45.06217 | -59.96600 | 40058 ft | 421 kts | 277° |
| 2026-05-05 19:25 | 45.06971 | -60.04804 | 40044 ft | 421 kts | 277° |
| 2026-05-05 19:25 | 45.07724 | -60.13009 | 40009 ft | 421 kts | 277° |
| 2026-05-05 19:26 | 45.08468 | -60.21218 | 40009 ft | 420 kts | 277° |
| 2026-05-05 19:26 | 45.09208 | -60.29431 | 40008 ft | 421 kts | 277° |
| 2026-05-05 19:27 | 45.09942 | -60.37655 | 39784 ft | 422 kts | 277° |
| 2026-05-05 19:27 | 45.10310 | -60.41790 | 39152 ft | 425 kts | 277° |
| 2026-05-05 19:27 | 45.10679 | -60.45961 | 38532 ft | 427 kts | 277° |
| 2026-05-05 19:28 | 45.11049 | -60.50148 | 37867 ft | 430 kts | 277° |
| 2026-05-05 19:28 | 45.11418 | -60.54357 | 37237 ft | 431 kts | 278° |
| 2026-05-05 19:28 | 45.11785 | -60.58564 | 36740 ft | 429 kts | 278° |
| 2026-05-05 19:28 | 45.12148 | -60.62756 | 36116 ft | 429 kts | 278° |
| 2026-05-05 19:29 | 45.12512 | -60.66949 | 35513 ft | 430 kts | 279° |
| 2026-05-05 19:29 | 45.12875 | -60.71146 | 34907 ft | 429 kts | 279° |
| 2026-05-05 19:29 | 45.13236 | -60.75341 | 34282 ft | 429 kts | 280° |
| 2026-05-05 19:29 | 45.13595 | -60.79533 | 33642 ft | 429 kts | 280° |
| 2026-05-05 19:30 | 45.13952 | -60.83726 | 32982 ft | 429 kts | 280° |
| 2026-05-05 19:30 | 45.14307 | -60.87917 | 32323 ft | 429 kts | 280° |
| 2026-05-05 19:30 | 45.14660 | -60.92114 | 31645 ft | 429 kts | 279° |
| 2026-05-05 19:30 | 45.15011 | -60.96311 | 30959 ft | 429 kts | 279° |
| 2026-05-05 19:31 | 45.15361 | -61.00510 | 30267 ft | 430 kts | 279° |
| 2026-05-05 19:31 | 45.15708 | -61.04689 | 29807 ft | 424 kts | 279° |
| 2026-05-05 19:31 | 45.16048 | -61.08814 | 29350 ft | 419 kts | 279° |
| 2026-05-05 19:31 | 45.16384 | -61.12896 | 28871 ft | 415 kts | 278° |
| 2026-05-05 19:32 | 45.16710 | -61.16876 | 28407 ft | 410 kts | 278° |
| 2026-05-05 19:32 | 45.17037 | -61.20870 | 27943 ft | 405 kts | 278° |
| 2026-05-05 19:32 | 45.17358 | -61.24816 | 27471 ft | 401 kts | 278° |
| 2026-05-05 19:32 | 45.17675 | -61.28725 | 27005 ft | 397 kts | 278° |
| 2026-05-05 19:33 | 45.17986 | -61.32594 | 26550 ft | 393 kts | 277° |
| 2026-05-05 19:33 | 45.18293 | -61.36425 | 26085 ft | 389 kts | 277° |
| 2026-05-05 19:33 | 45.18597 | -61.40219 | 25616 ft | 385 kts | 277° |
| 2026-05-05 19:33 | 45.18896 | -61.43972 | 25164 ft | 381 kts | 277° |
| 2026-05-05 19:34 | 45.19190 | -61.47687 | 24709 ft | 378 kts | 276° |
| 2026-05-05 19:34 | 45.19480 | -61.51374 | 24257 ft | 375 kts | 276° |
| 2026-05-05 19:34 | 45.19767 | -61.55026 | 23815 ft | 371 kts | 276° |
| 2026-05-05 19:35 | 45.20330 | -61.62217 | 22932 ft | 363 kts | 276° |
| 2026-05-05 19:35 | 45.20605 | -61.65762 | 22495 ft | 360 kts | 276° |
| 2026-05-05 19:35 | 45.20875 | -61.69272 | 22064 ft | 357 kts | 276° |
| 2026-05-05 19:35 | 45.21141 | -61.72751 | 21642 ft | 353 kts | 276° |
| 2026-05-05 19:36 | 45.21406 | -61.76198 | 21215 ft | 350 kts | 276° |
| 2026-05-05 19:36 | 45.21666 | -61.79612 | 20788 ft | 347 kts | 276° |
| 2026-05-05 19:36 | 45.21923 | -61.82993 | 20379 ft | 343 kts | 276° |
| 2026-05-05 19:36 | 45.22178 | -61.86348 | 19967 ft | 340 kts | 276° |
| 2026-05-05 19:37 | 45.22428 | -61.89666 | 19560 ft | 337 kts | 276° |
| 2026-05-05 19:37 | 45.22652 | -61.92953 | 19179 ft | 333 kts | 273° |
| 2026-05-05 19:37 | 45.22557 | -61.96199 | 18935 ft | 328 kts | 262° |
| 2026-05-05 19:37 | 45.22014 | -61.99348 | 18578 ft | 330 kts | 255° |
| 2026-05-05 19:38 | 45.21311 | -62.02450 | 18165 ft | 331 kts | 254° |
| 2026-05-05 19:38 | 45.20584 | -62.05532 | 17754 ft | 328 kts | 253° |
| 2026-05-05 19:38 | 45.19861 | -62.08594 | 17345 ft | 326 kts | 253° |
| 2026-05-05 19:38 | 45.19146 | -62.11631 | 16941 ft | 324 kts | 253° |
| 2026-05-05 19:39 | 45.18448 | -62.14609 | 16554 ft | 322 kts | 254° |
| 2026-05-05 19:39 | 45.17748 | -62.17615 | 16152 ft | 321 kts | 253° |
| 2026-05-05 19:39 | 45.17039 | -62.20643 | 15748 ft | 319 kts | 253° |
| 2026-05-05 19:39 | 45.16353 | -62.23576 | 15360 ft | 317 kts | 253° |
| 2026-05-05 19:40 | 45.15660 | -62.26529 | 14957 ft | 315 kts | 253° |
| 2026-05-05 19:40 | 45.14974 | -62.29457 | 14562 ft | 312 kts | 253° |
| 2026-05-05 19:40 | 45.14290 | -62.32368 | 14168 ft | 312 kts | 253° |
| 2026-05-05 19:40 | 45.13604 | -62.35269 | 13773 ft | 310 kts | 253° |
| 2026-05-05 19:41 | 45.12926 | -62.38152 | 13384 ft | 308 kts | 253° |
| 2026-05-05 19:41 | 45.12251 | -62.41017 | 12992 ft | 305 kts | 253° |
| 2026-05-05 19:41 | 45.11580 | -62.43868 | 12600 ft | 304 kts | 252° |
| 2026-05-05 19:41 | 45.10911 | -62.46700 | 12223 ft | 302 kts | 252° |
| 2026-05-05 19:42 | 45.10245 | -62.49512 | 11851 ft | 301 kts | 252° |
| 2026-05-05 19:42 | 45.09581 | -62.52315 | 11437 ft | 300 kts | 252° |
| 2026-05-05 19:42 | 45.08925 | -62.55079 | 11232 ft | 291 kts | 252° |
| 2026-05-05 19:42 | 45.08294 | -62.57731 | 11151 ft | 278 kts | 252° |
| 2026-05-05 19:43 | 45.07691 | -62.60267 | 11045 ft | 267 kts | 252° |
| 2026-05-05 19:43 | 45.07108 | -62.62703 | 10918 ft | 257 kts | 251° |
| 2026-05-05 19:43 | 45.06545 | -62.65060 | 10819 ft | 249 kts | 251° |
| 2026-05-05 19:43 | 45.05999 | -62.67339 | 10731 ft | 240 kts | 251° |
| 2026-05-05 19:44 | 45.05467 | -62.69567 | 10632 ft | 239 kts | 251° |
| 2026-05-05 19:44 | 45.04931 | -62.71811 | 10394 ft | 242 kts | 251° |
| 2026-05-05 19:44 | 45.04393 | -62.74061 | 10081 ft | 241 kts | 251° |
| 2026-05-05 19:44 | 45.03856 | -62.76303 | 9826 ft | 240 kts | 251° |
| 2026-05-05 19:45 | 45.03321 | -62.78532 | 9569 ft | 239 kts | 251° |
| 2026-05-05 19:45 | 45.02786 | -62.80763 | 9283 ft | 240 kts | 251° |
| 2026-05-05 19:45 | 45.02303 | -62.83023 | 8990 ft | 240 kts | 257° |
| 2026-05-05 19:45 | 45.02167 | -62.85380 | 8736 ft | 242 kts | 268° |
| 2026-05-05 19:46 | 45.02219 | -62.87763 | 8460 ft | 242 kts | 270° |
| 2026-05-05 19:46 | 45.02305 | -62.90139 | 8182 ft | 241 kts | 270° |
| 2026-05-05 19:46 | 45.02391 | -62.92510 | 7917 ft | 241 kts | 270° |
| 2026-05-05 19:46 | 45.02473 | -62.94863 | 7631 ft | 239 kts | 270° |
| 2026-05-05 19:47 | 45.02550 | -62.97199 | 7355 ft | 238 kts | 269° |
| 2026-05-05 19:47 | 45.02624 | -62.99523 | 7073 ft | 236 kts | 269° |
| 2026-05-05 19:47 | 45.02695 | -63.01841 | 6787 ft | 235 kts | 269° |
| 2026-05-05 19:47 | 45.02763 | -63.04138 | 6559 ft | 232 kts | 268° |
| 2026-05-05 19:48 | 45.02834 | -63.06371 | 6474 ft | 223 kts | 268° |
| 2026-05-05 19:48 | 45.02899 | -63.08516 | 6370 ft | 215 kts | 268° |
| 2026-05-05 19:48 | 45.02960 | -63.10640 | 6276 ft | 218 kts | 268° |
| 2026-05-05 19:48 | 45.03024 | -63.12780 | 6183 ft | 218 kts | 268° |
| 2026-05-05 19:49 | 45.03088 | -63.14921 | 6091 ft | 217 kts | 268° |
| 2026-05-05 19:49 | 45.03133 | -63.16336 | 6031 ft | 217 kts | 268° |
| 2026-05-05 19:49 | 45.03219 | -63.19184 | 5656 ft | 220 kts | 268° |
| 2026-05-05 19:49 | 45.03280 | -63.21410 | 4973 ft | 234 kts | 268° |
| 2026-05-05 19:50 | 45.03292 | -63.23702 | 4352 ft | 237 kts | 264° |
| 2026-05-05 19:50 | 45.03180 | -63.25972 | 4035 ft | 224 kts | 259° |
| 2026-05-05 19:50 | 45.02949 | -63.28057 | 3975 ft | 207 kts | 254° |
| 2026-05-05 19:50 | 45.02627 | -63.29948 | 3996 ft | 192 kts | 250° |
| 2026-05-05 19:51 | 45.02235 | -63.31667 | 3985 ft | 178 kts | 246° |
| 2026-05-05 19:51 | 45.01781 | -63.33264 | 3872 ft | 171 kts | 243° |
| 2026-05-05 19:51 | 45.01280 | -63.34735 | 3776 ft | 163 kts | 240° |
| 2026-05-05 19:51 | 45.00725 | -63.36130 | 3629 ft | 163 kts | 237° |
| 2026-05-05 19:52 | 45.00108 | -63.37465 | 3477 ft | 162 kts | 233° |
| 2026-05-05 19:52 | 44.99438 | -63.38736 | 3276 ft | 160 kts | 230° |
| 2026-05-05 19:52 | 44.98725 | -63.39935 | 3082 ft | 161 kts | 229° |
| 2026-05-05 19:52 | 44.97923 | -63.41139 | 2655 ft | 174 kts | 226° |
| 2026-05-05 19:53 | 44.97062 | -63.42318 | 2365 ft | 168 kts | 219° |
| 2026-05-05 19:53 | 44.96170 | -63.43240 | 2207 ft | 152 kts | 214° |
| 2026-05-05 19:53 | 44.95320 | -63.44048 | 2008 ft | 143 kts | 216° |
| 2026-05-05 19:53 | 44.94519 | -63.44851 | 1847 ft | 141 kts | 215° |
| 2026-05-05 19:54 | 44.93713 | -63.45651 | 1667 ft | 142 kts | 214° |
| 2026-05-05 19:54 | 44.92901 | -63.46458 | 1464 ft | 144 kts | 215° |
| 2026-05-05 19:54 | 44.92076 | -63.47275 | 1274 ft | 143 kts | 213° |
| 2026-05-05 19:54 | 44.91298 | -63.48043 | 1084 ft | 131 kts | 213° |
| 2026-05-05 19:55 | 44.90573 | -63.48756 | 926 ft | 126 kts | 214° |
| 2026-05-05 19:55 | 44.89857 | -63.49472 | 759 ft | 128 kts | 214° |
| 2026-05-05 19:55 | 44.89131 | -63.50187 | 592 ft | 128 kts | 214° |
| 2026-05-05 19:55 | 44.88429 | -63.50878 | 475 ft | 121 kts | 214° |
| 2026-05-05 19:56 | 44.87859 | -63.51444 | 469 ft | 97 kts | 216° |
| 2026-05-05 19:56 | 44.87599 | -63.51703 | 464 ft | 11 kts | 215° |
| 2026-05-05 19:56 | 44.87528 | -63.51774 | 465 ft | 14 kts | 215° |
| 2026-05-05 19:56 | 44.87462 | -63.51884 | 467 ft | 15 kts | 247° |
| 2026-05-05 19:57 | 44.87448 | -63.52018 | 470 ft | 12 kts | 281° |
| 2026-05-05 19:57 | 44.87467 | -63.52081 | 470 ft | 9 kts | 297° |
| 2026-05-05 19:57 | 44.87517 | -63.52111 | 469 ft | 6 kts | 12° |
| 2026-05-05 19:57 | 44.87555 | -63.52078 | 471 ft | 8 kts | 33° |
| 2026-05-05 19:58 | 44.87606 | -63.52027 | 475 ft | 10 kts | 37° |
| 2026-05-05 19:58 | 44.87673 | -63.51961 | 474 ft | 14 kts | 33° |
| 2026-05-05 19:58 | 44.87764 | -63.51870 | 472 ft | 18 kts | 37° |
| 2026-05-05 19:58 | 44.87870 | -63.51760 | 472 ft | 20 kts | 36° |
| 2026-05-05 19:59 | 44.87996 | -63.51633 | 463 ft | 25 kts | 35° |
| 2026-05-05 19:59 | 44.88151 | -63.51480 | 457 ft | 28 kts | 35° |
| 2026-05-05 19:59 | 44.88315 | -63.51316 | 454 ft | 29 kts | 34° |
| 2026-05-05 19:59 | 44.88428 | -63.51217 | 456 ft | 17 kts | 18° |
| 2026-05-05 20:00 | 44.88543 | -63.51221 | 456 ft | 17 kts | 352° |
| 2026-05-05 20:00 | 44.88664 | -63.51249 | 456 ft | 18 kts | 349° |
| 2026-05-05 20:00 | 44.88784 | -63.51281 | 456 ft | 18 kts | 350° |
| 2026-05-05 20:00 | 44.88905 | -63.51326 | 456 ft | 18 kts | 325° |
| 2026-05-05 20:01 | 44.88950 | -63.51396 | 456 ft | 4 kts | 300° |
| 2026-05-05 20:01 | 44.88946 | -63.51407 | 456 ft | 1 kts | 245° |
| 2026-05-05 20:01 | 44.88931 | -63.51424 | 456 ft | 3 kts | 219° |
| 2026-05-05 20:01 | 44.88908 | -63.51446 | 456 ft | 5 kts | 214° |
| 2026-05-05 20:02 | 44.88888 | -63.51465 | 456 ft | 2 kts | 213° |
| 2026-05-05 20:02 | 44.88886 | -63.51467 | 456 ft | 0 kts | 213° |